Time,TemperatureF,DewpointF,PressureIn,WindDirection,WindDirectionDegrees,WindSpeedMPH,WindSpeedGustMPH,Humidity,HourlyPrecipIn,Conditions,Clouds,dailyrainin,SoftwareType,DateUTC
2013-04-03 00:00:00,32.3,14.4,30.04,NNW,329,0.0,222.7,47,0.16,,,0.00,VWS V14.01,2013-04-03 04:00:00,
2013-04-03 00:01:00,33.1,13.4,30.04,NW,308,5.0,222.7,44,0.16,,,0.00,VWS V14.01,2013-04-03 04:01:00,
2013-04-03 00:02:00,32.4,14.8,30.04,NW,315,0.0,222.7,48,0.16,,,0.00,VWS V14.01,2013-04-03 04:02:00,
2013-04-03 00:03:00,33.0,13.5,30.04,West,269,0.0,222.7,44,0.16,,,0.00,VWS V14.01,2013-04-03 04:03:00,
2013-04-03 00:04:00,32.5,15.1,30.04,West,266,6.4,222.7,48,0.16,,,0.00,VWS V14.01,2013-04-03 04:04:00,
2013-04-03 00:05:00,33.0,13.6,30.04,West,269,0.0,222.7,44,0.16,,,0.00,VWS V14.01,2013-04-03 04:05:00,
2013-04-03 00:06:00,32.3,14.9,30.04,West,262,0.0,222.7,48,0.16,,,0.00,VWS V14.01,2013-04-03 04:06:00,
2013-04-03 00:07:00,32.3,14.6,30.04,NW,323,0.0,222.7,48,0.16,,,0.00,VWS V14.01,2013-04-03 04:07:00,
2013-04-03 00:08:00,32.4,14.7,30.04,WNW,285,0.0,222.7,48,0.16,,,0.00,VWS V14.01,2013-04-03 04:08:00,
2013-04-03 00:09:00,32.9,13.8,30.04,West,273,8.7,222.7,45,0.16,,,0.00,VWS V14.01,2013-04-03 04:09:00,
2013-04-03 00:10:00,32.4,14.8,30.04,WNW,285,0.0,222.7,48,0.16,,,0.00,VWS V14.01,2013-04-03 04:10:00,
2013-04-03 00:11:00,32.5,14.9,30.04,WNW,285,0.0,222.7,48,0.16,,,0.00,VWS V14.01,2013-04-03 04:11:00,
2013-04-03 00:12:00,32.4,15.1,30.04,West,266,6.0,222.7,48,0.16,,,0.00,VWS V14.01,2013-04-03 04:12:00,
2013-04-03 00:13:00,32.4,15.1,30.04,WSW,249,0.0,222.7,48,0.16,,,0.00,VWS V14.01,2013-04-03 04:13:00,
2013-04-03 00:14:00,32.9,14.2,30.04,NNW,329,6.0,222.7,46,0.16,,,0.00,VWS V14.01,2013-04-03 04:14:00,
2013-04-03 00:15:00,32.3,14.9,30.04,WNW,287,2.7,222.7,48,0.16,,,0.00,VWS V14.01,2013-04-03 04:15:00,
2013-04-03 00:16:00,32.4,15.2,30.04,West,273,0.0,222.7,49,0.16,,,0.00,VWS V14.01,2013-04-03 04:16:00,
2013-04-03 00:17:00,32.3,15.2,30.04,WNW,291,3.5,222.7,49,0.16,,,0.00,VWS V14.01,2013-04-03 04:17:00,
2013-04-03 00:18:00,32.3,15.5,30.04,North,359,0.0,222.7,49,0.16,,,0.00,VWS V14.01,2013-04-03 04:18:00,
2013-04-03 00:19:00,32.3,15.9,30.04,North,359,0.0,222.7,50,0.16,,,0.00,VWS V14.01,2013-04-03 04:19:00,
2013-04-03 00:20:00,32.8,13.9,30.04,West,281,4.7,222.7,45,0.16,,,0.00,VWS V14.01,2013-04-03 04:20:00,
2013-04-03 00:21:00,32.3,15.7,30.04,NW,311,5.6,222.7,50,0.16,,,0.00,VWS V14.01,2013-04-03 04:21:00,
2013-04-03 00:22:00,32.2,16.0,30.04,WNW,300,9.4,222.7,51,0.16,,,0.00,VWS V14.01,2013-04-03 04:22:00,
2013-04-03 00:23:00,32.1,16.2,30.04,West,276,8.6,222.7,51,0.16,,,0.00,VWS V14.01,2013-04-03 04:23:00,
2013-04-03 00:24:00,32.0,15.8,30.04,West,262,7.0,222.7,51,0.16,,,0.00,VWS V14.01,2013-04-03 04:24:00,
2013-04-03 00:25:00,32.7,14.2,30.04,West,273,0.0,222.7,46,0.16,,,0.00,VWS V14.01,2013-04-03 04:25:00,
2013-04-03 00:26:00,32.0,16.3,30.04,West,263,6.0,222.7,52,0.16,,,0.00,VWS V14.01,2013-04-03 04:26:00,
2013-04-03 00:27:00,32.0,16.1,30.04,West,264,7.8,222.7,51,0.16,,,0.00,VWS V14.01,2013-04-03 04:27:00,
2013-04-03 00:28:00,31.8,16.1,30.04,NW,323,5.1,222.7,52,0.16,,,0.00,VWS V14.01,2013-04-03 04:28:00,
2013-04-03 00:29:00,32.0,16.5,30.04,NW,323,0.0,222.7,52,0.16,,,0.00,VWS V14.01,2013-04-03 04:29:00,
2013-04-03 00:30:00,32.6,14.1,30.04,WNW,285,4.5,222.7,46,0.16,,,0.00,VWS V14.01,2013-04-03 04:30:00,
2013-04-03 00:32:00,31.8,16.0,30.04,WNW,302,7.5,222.7,52,0.16,,,0.00,VWS V14.01,2013-04-03 04:32:00,
2013-04-03 00:33:00,31.8,16.0,30.04,WNW,295,0.0,222.7,52,0.16,,,0.00,VWS V14.01,2013-04-03 04:33:00,
2013-04-03 00:34:00,31.9,16.2,30.04,NNW,342,0.0,222.7,52,0.16,,,0.00,VWS V14.01,2013-04-03 04:34:00,
2013-04-03 00:35:00,31.9,16.3,30.04,West,281,0.0,222.7,52,0.16,,,0.00,VWS V14.01,2013-04-03 04:35:00,
2013-04-03 00:36:00,32.5,14.0,30.04,WSW,252,0.0,222.7,46,0.16,,,0.00,VWS V14.01,2013-04-03 04:36:00,
2013-04-03 00:37:00,31.9,16.5,30.04,NNW,346,0.0,222.7,52,0.16,,,0.00,VWS V14.01,2013-04-03 04:37:00,
2013-04-03 00:38:00,31.9,16.3,30.04,WSW,246,0.0,222.7,52,0.16,,,0.00,VWS V14.01,2013-04-03 04:38:00,
2013-04-03 00:39:00,31.9,16.5,30.04,WSW,246,0.0,222.7,52,0.16,,,0.00,VWS V14.01,2013-04-03 04:39:00,
2013-04-03 00:40:00,31.8,16.2,30.04,NNW,332,0.0,222.7,52,0.16,,,0.00,VWS V14.01,2013-04-03 04:40:00,
2013-04-03 00:41:00,32.4,15.0,30.04,WNW,288,0.0,222.7,48,0.16,,,0.00,VWS V14.01,2013-04-03 04:41:00,
2013-04-03 00:42:00,31.9,16.5,30.04,NNW,332,0.0,222.7,52,0.16,,,0.00,VWS V14.01,2013-04-03 04:42:00,
2013-04-03 00:43:00,31.8,16.4,30.04,SSW,200,0.0,222.7,52,0.16,,,0.00,VWS V14.01,2013-04-03 04:43:00,
2013-04-03 00:44:00,31.8,16.4,30.04,WNW,295,3.5,222.7,52,0.16,,,0.00,VWS V14.01,2013-04-03 04:44:00,
2013-04-03 00:45:00,31.7,16.5,30.04,WNW,290,0.0,222.7,53,0.16,,,0.00,VWS V14.01,2013-04-03 04:45:00,
2013-04-03 00:46:00,31.7,16.4,30.04,WNW,297,4.3,222.7,53,0.16,,,0.00,VWS V14.01,2013-04-03 04:46:00,
2013-04-03 00:47:00,32.2,13.8,30.03,West,274,6.1,222.7,46,0.16,,,0.00,VWS V14.01,2013-04-03 04:47:00,
2013-04-03 00:48:00,31.7,16.7,30.04,NW,305,0.0,222.7,53,0.16,,,0.00,VWS V14.01,2013-04-03 04:48:00,
2013-04-03 00:49:00,31.7,16.7,30.04,NW,321,7.6,222.7,53,0.16,,,0.00,VWS V14.01,2013-04-03 04:49:00,
2013-04-03 00:50:00,31.8,16.7,30.04,NW,321,0.0,222.7,53,0.16,,,0.00,VWS V14.01,2013-04-03 04:50:00,
2013-04-03 00:51:00,31.6,16.4,30.04,WSW,249,9.9,222.7,53,0.16,,,0.00,VWS V14.01,2013-04-03 04:51:00,
2013-04-03 00:52:00,32.3,14.6,30.04,NNW,336,0.0,222.7,48,0.16,,,0.00,VWS V14.01,2013-04-03 04:52:00,
2013-04-03 00:53:00,31.6,16.3,30.04,NW,318,8.5,222.7,53,0.16,,,0.00,VWS V14.01,2013-04-03 04:53:00,
2013-04-03 00:55:00,31.6,16.1,30.04,WNW,298,0.0,222.7,52,0.16,,,0.00,VWS V14.01,2013-04-03 04:55:00,
2013-04-03 00:56:00,31.5,16.3,30.04,WNW,298,0.0,222.7,53,0.16,,,0.00,VWS V14.01,2013-04-03 04:56:00,
2013-04-03 00:57:00,32.3,14.4,30.04,WNW,283,4.2,222.7,47,0.16,,,0.00,VWS V14.01,2013-04-03 04:57:00,
2013-04-03 00:58:00,31.5,16.6,30.04,WNW,298,4.8,222.7,54,0.16,,,0.00,VWS V14.01,2013-04-03 04:58:00,
2013-04-03 00:59:00,31.5,16.6,30.04,West,274,8.9,222.7,54,0.16,,,0.00,VWS V14.01,2013-04-03 04:59:00,
2013-04-03 01:00:00,31.5,16.6,30.04,North,359,0.0,222.7,54,0.16,,,0.00,VWS V14.01,2013-04-03 05:00:00,
2013-04-03 01:01:00,31.5,16.4,30.03,WSW,245,0.0,222.7,53,0.16,,,0.00,VWS V14.01,2013-04-03 05:01:00,
2013-04-03 01:02:00,31.5,16.5,30.03,West,273,9.2,222.7,53,0.16,,,0.00,VWS V14.01,2013-04-03 05:02:00,
2013-04-03 01:03:00,31.5,16.5,30.03,West,271,0.0,222.7,53,0.16,,,0.00,VWS V14.01,2013-04-03 05:03:00,
2013-04-03 01:04:00,31.5,16.6,30.04,West,271,0.0,222.7,54,0.16,,,0.00,VWS V14.01,2013-04-03 05:04:00,
2013-04-03 01:05:00,31.5,16.7,30.04,WNW,292,5.3,222.7,54,0.16,,,0.00,VWS V14.01,2013-04-03 05:05:00,
2013-04-03 01:06:00,31.4,16.2,30.03,West,263,7.7,222.7,53,0.16,,,0.00,VWS V14.01,2013-04-03 05:06:00,
2013-04-03 01:07:00,31.5,16.4,30.03,WNW,285,0.0,222.7,53,0.16,,,0.00,VWS V14.01,2013-04-03 05:07:00,
2013-04-03 01:08:00,31.5,16.4,30.03,WNW,288,7.0,222.7,53,0.16,,,0.00,VWS V14.01,2013-04-03 05:08:00,
2013-04-03 01:09:00,31.5,16.5,30.03,NNW,328,0.0,222.7,53,0.16,,,0.00,VWS V14.01,2013-04-03 05:09:00,
2013-04-03 01:10:00,31.5,16.8,30.03,NNW,328,0.0,222.7,54,0.16,,,0.00,VWS V14.01,2013-04-03 05:10:00,
2013-04-03 01:11:00,31.4,17.0,30.03,NW,323,4.7,222.7,55,0.16,,,0.00,VWS V14.01,2013-04-03 05:11:00,
2013-04-03 01:12:00,31.4,16.5,30.03,NW,316,0.0,222.7,54,0.16,,,0.00,VWS V14.01,2013-04-03 05:12:00,
2013-04-03 01:14:00,31.4,16.8,30.03,WSW,242,2.6,222.7,54,0.16,,,0.00,VWS V14.01,2013-04-03 05:14:00,
2013-04-03 01:15:00,31.3,16.5,30.03,WSW,242,0.0,222.7,54,0.16,,,0.00,VWS V14.01,2013-04-03 05:15:00,
2013-04-03 01:16:00,31.3,16.6,30.03,West,270,0.0,222.7,54,0.16,,,0.00,VWS V14.01,2013-04-03 05:16:00,
2013-04-03 01:18:00,31.3,16.6,30.03,WNW,290,0.0,222.7,54,0.16,,,0.00,VWS V14.01,2013-04-03 05:18:00,
2013-04-03 01:19:00,31.3,16.8,30.03,NW,309,0.0,222.7,54,0.16,,,0.00,VWS V14.01,2013-04-03 05:19:00,
2013-04-03 01:20:00,31.2,16.8,30.03,NW,309,0.0,222.7,55,0.16,,,0.00,VWS V14.01,2013-04-03 05:20:00,
2013-04-03 01:21:00,31.3,16.9,30.03,NW,309,0.0,222.7,55,0.16,,,0.00,VWS V14.01,2013-04-03 05:21:00,
2013-04-03 01:24:00,31.1,17.0,30.03,NW,309,0.0,222.7,55,0.16,,,0.00,VWS V14.01,2013-04-03 05:24:00,
2013-04-03 01:25:00,31.1,17.3,30.03,WNW,295,0.0,222.7,56,0.16,,,0.00,VWS V14.01,2013-04-03 05:25:00,
2013-04-03 01:26:00,31.1,17.4,30.03,NW,304,0.0,222.7,56,0.16,,,0.00,VWS V14.01,2013-04-03 05:26:00,
2013-04-03 02:15:00,31.3,16.6,30.03,WNW,290,5.0,222.7,54,0.16,,,0.00,VWS V14.01,2013-04-03 06:15:00,
2013-04-03 02:20:00,31.2,17.0,30.03,NW,309,0.0,222.7,55,0.16,,,0.00,VWS V14.01,2013-04-03 06:20:00,
2013-04-03 02:25:00,31.1,17.3,30.03,WNW,285,0.0,222.7,56,0.16,,,0.00,VWS V14.01,2013-04-03 06:25:00,
2013-04-03 02:30:00,31.1,17.9,30.03,NNW,346,0.0,222.7,58,0.16,,,0.00,VWS V14.01,2013-04-03 06:30:00,
2013-04-03 02:36:00,30.9,17.8,30.03,WNW,291,0.0,222.7,58,0.16,,,0.00,VWS V14.01,2013-04-03 06:36:00,
2013-04-03 02:41:00,30.9,17.6,30.03,WNW,298,7.3,222.7,57,0.16,,,0.00,VWS V14.01,2013-04-03 06:41:00,
2013-04-03 02:47:00,31.0,17.7,30.03,WNW,300,0.0,222.7,57,0.16,,,0.00,VWS V14.01,2013-04-03 06:47:00,
2013-04-03 02:52:00,30.9,17.6,30.02,WNW,287,8.6,222.7,57,0.16,,,0.00,VWS V14.01,2013-04-03 06:52:00,
2013-04-03 02:58:00,30.9,17.9,30.03,West,280,0.0,222.7,58,0.16,,,0.00,VWS V14.01,2013-04-03 06:58:00,
2013-04-03 03:03:00,30.9,17.5,30.02,West,277,0.0,222.7,57,0.16,,,0.00,VWS V14.01,2013-04-03 07:03:00,
2013-04-03 03:08:00,30.8,17.9,30.03,West,278,9.3,222.7,58,0.16,,,0.00,VWS V14.01,2013-04-03 07:08:00,
2013-04-03 03:13:00,30.8,17.6,30.02,WNW,291,0.0,222.7,58,0.16,,,0.00,VWS V14.01,2013-04-03 07:13:00,
2013-04-03 03:19:00,30.7,17.3,30.02,NW,319,0.0,222.7,57,0.16,,,0.00,VWS V14.01,2013-04-03 07:19:00,
2013-04-03 03:24:00,30.7,17.2,30.02,NNW,345,0.0,222.7,57,0.16,,,0.00,VWS V14.01,2013-04-03 07:24:00,
2013-04-03 03:29:00,30.6,17.0,30.02,NW,314,4.8,222.7,56,0.16,,,0.00,VWS V14.01,2013-04-03 07:29:00,
2013-04-03 03:34:00,30.7,17.3,30.02,NNW,330,0.0,222.7,57,0.16,,,0.00,VWS V14.01,2013-04-03 07:34:00,
2013-04-03 03:40:00,30.6,18.0,30.02,WSW,252,4.9,222.7,59,0.16,,,0.00,VWS V14.01,2013-04-03 07:40:00,
2013-04-03 03:45:00,30.5,18.1,30.03,WNW,283,14.0,222.7,60,0.16,,,0.00,VWS V14.01,2013-04-03 07:45:00,
2013-04-03 03:50:00,30.6,18.5,30.03,NW,304,0.0,222.7,60,0.16,,,0.00,VWS V14.01,2013-04-03 07:50:00,
2013-04-03 03:55:00,30.5,18.7,30.03,WNW,290,0.0,222.7,61,0.16,,,0.00,VWS V14.01,2013-04-03 07:55:00,
2013-04-03 04:01:00,30.5,19.5,30.03,West,270,0.0,222.7,63,0.16,,,0.00,VWS V14.01,2013-04-03 08:01:00,
2013-04-03 04:06:00,30.3,19.1,30.03,West,274,0.0,222.7,63,0.16,,,0.00,VWS V14.01,2013-04-03 08:06:00,
2013-04-03 04:11:00,30.3,19.2,30.03,West,280,3.3,222.7,63,0.16,,,0.00,VWS V14.01,2013-04-03 08:11:00,
2013-04-03 04:16:00,30.0,18.4,30.03,West,263,0.0,222.7,62,0.16,,,0.00,VWS V14.01,2013-04-03 08:16:00,
2013-04-03 04:22:00,30.1,18.4,30.03,WNW,292,5.1,222.7,61,0.16,,,0.00,VWS V14.01,2013-04-03 08:22:00,
2013-04-03 04:27:00,30.0,18.6,30.03,West,262,7.8,222.7,62,0.16,,,0.00,VWS V14.01,2013-04-03 08:27:00,
2013-04-03 04:32:00,30.0,18.4,30.03,West,270,0.0,222.7,61,0.16,,,0.00,VWS V14.01,2013-04-03 08:32:00,
2013-04-03 04:38:00,30.0,18.0,30.03,West,270,7.7,222.7,60,0.16,,,0.00,VWS V14.01,2013-04-03 08:38:00,
2013-04-03 04:43:00,30.2,18.4,30.04,West,263,6.4,222.7,61,0.16,,,0.00,VWS V14.01,2013-04-03 08:43:00,
2013-04-03 04:48:00,30.0,18.0,30.04,NW,323,0.0,222.7,60,0.16,,,0.00,VWS V14.01,2013-04-03 08:48:00,
2013-04-03 04:54:00,30.2,19.0,30.04,North,359,0.0,222.7,63,0.16,,,0.00,VWS V14.01,2013-04-03 08:54:00,
2013-04-03 04:59:00,29.9,18.0,30.04,West,262,10.6,222.7,61,0.16,,,0.00,VWS V14.01,2013-04-03 08:59:00,
2013-04-03 05:04:00,30.1,18.4,30.04,West,262,0.0,222.7,61,0.16,,,0.00,VWS V14.01,2013-04-03 09:04:00,
2013-04-03 05:10:00,29.9,18.4,30.04,West,274,0.0,222.7,62,0.16,,,0.00,VWS V14.01,2013-04-03 09:10:00,
2013-04-03 05:15:00,29.9,18.1,30.04,NW,305,0.0,222.7,61,0.16,,,0.00,VWS V14.01,2013-04-03 09:15:00,
2013-04-03 05:20:00,29.8,18.1,30.04,NW,305,0.0,222.7,61,0.16,,,0.00,VWS V14.01,2013-04-03 09:20:00,
2013-04-03 05:26:00,29.9,18.0,30.04,West,274,0.0,222.7,61,0.16,,,0.00,VWS V14.01,2013-04-03 09:26:00,
2013-04-03 05:31:00,29.8,18.4,30.04,WNW,294,0.0,222.7,62,0.16,,,0.00,VWS V14.01,2013-04-03 09:31:00,
2013-04-03 05:36:00,29.9,18.3,30.05,WNW,301,0.0,222.7,62,0.16,,,0.00,VWS V14.01,2013-04-03 09:36:00,
2013-04-03 05:41:00,29.8,18.2,30.05,West,277,0.0,222.7,62,0.16,,,0.00,VWS V14.01,2013-04-03 09:41:00,
2013-04-03 05:47:00,29.8,18.4,30.05,WNW,302,5.0,222.7,62,0.16,,,0.00,VWS V14.01,2013-04-03 09:47:00,
2013-04-03 05:52:00,29.8,18.2,30.05,WNW,300,0.0,222.7,62,0.16,,,0.00,VWS V14.01,2013-04-03 09:52:00,
2013-04-03 05:57:00,29.7,18.4,30.05,WSW,239,7.4,222.7,62,0.16,,,0.00,VWS V14.01,2013-04-03 09:57:00,
2013-04-03 06:02:00,29.6,18.0,30.06,West,276,10.5,222.7,62,0.16,,,0.00,VWS V14.01,2013-04-03 10:02:00,
2013-04-03 06:08:00,29.8,18.2,30.06,NW,311,0.0,222.7,61,0.16,,,0.00,VWS V14.01,2013-04-03 10:08:00,
2013-04-03 06:13:00,29.7,17.8,30.06,WNW,300,0.0,222.7,61,0.16,,,0.00,VWS V14.01,2013-04-03 10:13:00,
2013-04-03 06:18:00,29.6,17.6,30.06,WNW,297,0.0,222.7,60,0.16,,,0.00,VWS V14.01,2013-04-03 10:18:00,
2013-04-03 06:24:00,29.8,18.2,30.07,West,281,0.0,222.7,62,0.16,,,0.00,VWS V14.01,2013-04-03 10:24:00,
2013-04-03 06:29:00,29.9,18.4,30.07,West,267,0.0,222.7,62,0.16,,,0.00,VWS V14.01,2013-04-03 10:29:00,
2013-04-03 06:34:00,29.7,18.4,30.07,WNW,295,0.0,222.7,62,0.16,,,0.00,VWS V14.01,2013-04-03 10:34:00,
2013-04-03 06:39:00,29.6,18.7,30.07,NW,308,8.4,222.7,63,0.16,,,0.00,VWS V14.01,2013-04-03 10:39:00,
2013-04-03 06:45:00,29.7,18.6,30.07,WSW,245,0.0,222.7,63,0.16,,,0.00,VWS V14.01,2013-04-03 10:45:00,
2013-04-03 06:50:00,29.7,19.1,30.07,NW,318,0.0,222.7,64,0.16,,,0.00,VWS V14.01,2013-04-03 10:50:00,
2013-04-03 06:55:00,29.8,19.3,30.08,WSW,255,0.0,222.7,64,0.16,,,0.00,VWS V14.01,2013-04-03 10:55:00,
2013-04-03 07:00:00,29.8,19.0,30.08,WNW,284,0.0,222.7,64,0.16,,,0.00,VWS V14.01,2013-04-03 11:00:00,
2013-04-03 07:06:00,29.7,19.1,30.08,WNW,285,0.0,222.7,64,0.16,,,0.00,VWS V14.01,2013-04-03 11:06:00,
2013-04-03 07:12:00,29.7,19.0,30.09,WSW,246,0.0,222.7,64,0.16,,,0.00,VWS V14.01,2013-04-03 11:12:00,
2013-04-03 07:17:00,29.9,19.0,30.09,SW,236,0.0,222.7,63,0.16,,,0.00,VWS V14.01,2013-04-03 11:17:00,
2013-04-03 07:23:00,30.0,19.1,30.09,SW,221,4.3,222.7,64,0.16,,,0.00,VWS V14.01,2013-04-03 11:23:00,
2013-04-03 07:29:00,30.0,18.7,30.09,NW,316,0.0,222.7,62,0.16,,,0.00,VWS V14.01,2013-04-03 11:29:00,
2013-04-03 07:34:00,30.2,18.6,30.09,NW,311,4.2,222.7,62,0.16,,,0.00,VWS V14.01,2013-04-03 11:34:00,
2013-04-03 07:40:00,30.2,18.5,30.10,WNW,292,0.0,222.7,61,0.16,,,0.00,VWS V14.01,2013-04-03 11:40:00,
2013-04-03 07:45:00,30.2,18.3,30.09,NW,326,6.9,222.7,61,0.16,,,0.00,VWS V14.01,2013-04-03 11:45:00,
2013-04-03 07:51:00,30.4,18.7,30.09,WSW,255,0.0,222.7,61,0.16,,,0.00,VWS V14.01,2013-04-03 11:51:00,
2013-04-03 07:57:00,30.6,18.9,30.10,WNW,287,0.0,222.7,61,0.16,,,0.00,VWS V14.01,2013-04-03 11:57:00,
2013-04-03 08:02:00,30.7,18.7,30.10,NNW,333,6.7,222.7,61,0.16,,,0.00,VWS V14.01,2013-04-03 12:02:00,
2013-04-03 08:08:00,30.9,18.8,30.10,NNW,336,0.0,222.7,60,0.16,,,0.00,VWS V14.01,2013-04-03 12:08:00,
2013-04-03 08:14:00,31.0,18.7,30.10,WNW,288,7.4,222.7,60,0.16,,,0.00,VWS V14.01,2013-04-03 12:14:00,
2013-04-03 08:21:00,31.1,18.4,30.10,WNW,300,0.0,222.7,59,0.16,,,0.00,VWS V14.01,2013-04-03 12:21:00,
2013-04-03 08:26:00,31.0,17.7,30.10,WNW,295,0.0,222.7,57,0.16,,,0.00,VWS V14.01,2013-04-03 12:26:00,
2013-04-03 08:32:00,31.2,18.0,30.10,WSW,239,6.2,222.7,58,0.16,,,0.00,VWS V14.01,2013-04-03 12:32:00,
2013-04-03 08:37:00,31.5,17.7,30.10,NNW,330,0.0,222.7,56,0.16,,,0.00,VWS V14.01,2013-04-03 12:37:00,
2013-04-03 08:43:00,31.4,17.0,30.10,NW,315,10.2,222.7,55,0.16,,,0.00,VWS V14.01,2013-04-03 12:43:00,
2013-04-03 08:48:00,31.6,17.5,30.10,NW,311,1.6,222.7,56,0.16,,,0.00,VWS V14.01,2013-04-03 12:48:00,
2013-04-03 08:54:00,32.1,17.5,30.10,NW,318,7.0,222.7,54,0.16,,,0.00,VWS V14.01,2013-04-03 12:54:00,
2013-04-03 08:59:00,32.1,17.1,30.10,West,260,6.3,222.7,54,0.16,,,0.00,VWS V14.01,2013-04-03 12:59:00,
2013-04-03 09:05:00,32.6,17.1,30.10,NNW,345,0.0,222.7,52,0.16,,,0.00,VWS V14.01,2013-04-03 13:05:00,
2013-04-03 09:10:00,32.7,17.2,30.10,NW,318,7.0,222.7,52,0.16,,,0.00,VWS V14.01,2013-04-03 13:10:00,
2013-04-03 09:16:00,32.8,16.8,30.10,NNW,340,4.3,222.7,51,0.16,,,0.00,VWS V14.01,2013-04-03 13:16:00,
2013-04-03 09:22:00,32.5,17.2,30.10,NW,308,6.1,222.7,53,0.16,,,0.00,VWS V14.01,2013-04-03 13:22:00,
2013-04-03 09:27:00,32.5,15.9,30.10,NNW,328,4.5,222.7,50,0.16,,,0.00,VWS V14.01,2013-04-03 13:27:00,
2013-04-03 09:33:00,33.0,16.5,30.10,NW,325,6.0,222.7,50,0.16,,,0.00,VWS V14.01,2013-04-03 13:33:00,
2013-04-03 09:38:00,33.1,16.3,30.10,NW,305,12.4,222.7,50,0.16,,,0.00,VWS V14.01,2013-04-03 13:38:00,
2013-04-03 09:44:00,32.6,16.1,30.10,NW,323,6.5,222.7,50,0.16,,,0.00,VWS V14.01,2013-04-03 13:44:00,
2013-04-03 09:49:00,33.4,16.4,30.10,WNW,302,0.0,222.7,49,0.16,,,0.00,VWS V14.01,2013-04-03 13:49:00,
2013-04-03 09:55:00,34.5,16.8,30.10,North,11,0.0,222.7,48,0.16,,,0.00,VWS V14.01,2013-04-03 13:55:00,
2013-04-03 10:00:00,34.8,16.2,30.10,West,273,7.3,222.7,46,0.16,,,0.00,VWS V14.01,2013-04-03 14:00:00,
2013-04-03 10:05:00,34.4,16.5,30.10,NNW,333,0.0,222.7,47,0.16,,,0.00,VWS V14.01,2013-04-03 14:05:00,
2013-04-03 10:10:00,34.4,16.7,30.10,NNW,333,0.0,222.7,48,0.16,,,0.00,VWS V14.01,2013-04-03 14:10:00,
2013-04-03 10:16:00,34.8,16.2,30.09,NNW,342,16.0,222.7,46,0.16,,,0.00,VWS V14.01,2013-04-03 14:16:00,
2013-04-03 10:21:00,34.3,15.4,30.09,NW,314,0.0,222.7,45,0.16,,,0.00,VWS V14.01,2013-04-03 14:21:00,
2013-04-03 10:26:00,35.0,15.5,30.09,NNW,342,5.0,222.7,44,0.16,,,0.00,VWS V14.01,2013-04-03 14:26:00,
2013-04-03 10:31:00,35.4,15.2,30.09,WNW,300,2.0,222.7,43,0.16,,,0.00,VWS V14.01,2013-04-03 14:31:00,
2013-04-03 10:37:00,35.7,15.4,30.09,West,274,8.8,222.7,43,0.16,,,0.00,VWS V14.01,2013-04-03 14:37:00,
2013-04-03 10:42:00,35.7,15.6,30.09,WNW,295,0.0,222.7,43,0.16,,,0.00,VWS V14.01,2013-04-03 14:42:00,
2013-04-03 10:47:00,36.1,15.2,30.09,NW,312,8.6,222.7,42,0.16,,,0.00,VWS V14.01,2013-04-03 14:47:00,
2013-04-03 10:53:00,36.7,15.5,30.10,NNW,335,6.0,222.7,42,0.16,,,0.00,VWS V14.01,2013-04-03 14:53:00,
2013-04-03 10:58:00,36.6,16.0,30.10,West,270,3.5,222.7,43,0.16,,,0.00,VWS V14.01,2013-04-03 14:58:00,
2013-04-03 11:03:00,36.9,15.4,30.10,NW,319,5.7,222.7,41,0.16,,,0.00,VWS V14.01,2013-04-03 15:03:00,
2013-04-03 11:08:00,36.5,14.9,30.10,North,359,6.1,222.7,41,0.16,,,0.00,VWS V14.01,2013-04-03 15:08:00,
2013-04-03 11:14:00,36.8,14.2,30.09,NW,323,4.8,222.7,39,0.16,,,0.00,VWS V14.01,2013-04-03 15:14:00,
2013-04-03 11:19:00,36.0,14.5,30.09,NNE,20,10.9,222.7,41,0.16,,,0.00,VWS V14.01,2013-04-03 15:19:00,
2013-04-03 11:24:00,36.9,14.4,30.09,NW,312,5.0,222.7,39,0.16,,,0.00,VWS V14.01,2013-04-03 15:24:00,
2013-04-03 11:31:00,37.3,15.6,30.10,NNW,347,2.1,2.1,41,0.16,,,0.00,VWS V14.01,2013-04-03 15:31:00,
2013-04-03 11:33:00,37.3,15.6,30.10,NNW,347,2.1,2.1,41,0.16,,,0.00,VWS V14.01,2013-04-03 15:33:00,
2013-04-03 11:34:00,37.4,15.5,30.10,NNW,338,4.2,9.9,40,0.00,,,0.00,VWS V14.01,2013-04-03 15:34:00,
2013-04-03 11:35:00,37.3,14.8,30.10,NNW,336,10.0,10.0,39,0.00,,,0.00,VWS V14.01,2013-04-03 15:35:00,
2013-04-03 11:36:00,37.4,14.5,30.10,North,359,6.9,9.7,39,0.00,,,0.00,VWS V14.01,2013-04-03 15:36:00,
2013-04-03 11:37:00,37.3,15.2,30.10,NW,319,0.0,6.8,40,0.00,,,0.00,VWS V14.01,2013-04-03 15:37:00,
2013-04-03 11:38:00,37.4,14.5,30.10,North,359,6.9,9.7,39,0.00,,,0.00,VWS V14.01,2013-04-03 15:38:00,
2013-04-03 11:39:00,37.2,14.9,30.10,North,0,5.0,17.7,40,0.00,,,0.00,VWS V14.01,2013-04-03 15:39:00,
2013-04-03 11:40:00,37.3,15.3,30.10,WNW,300,5.7,10.8,40,0.00,,,0.00,VWS V14.01,2013-04-03 15:40:00,
2013-04-03 11:41:00,37.5,14.9,30.10,WNW,302,11.4,15.2,39,0.00,,,0.00,VWS V14.01,2013-04-03 15:41:00,
2013-04-03 11:42:00,37.9,15.6,30.10,WNW,290,0.0,10.2,40,0.00,,,0.00,VWS V14.01,2013-04-03 15:42:00,
2013-04-03 11:43:00,37.7,15.2,30.10,North,350,0.0,7.0,39,0.00,,,0.00,VWS V14.01,2013-04-03 15:43:00,
2013-04-03 11:44:00,37.9,15.4,30.10,NW,325,3.2,10.2,39,0.00,,,0.00,VWS V14.01,2013-04-03 15:44:00,
2013-04-03 11:45:00,37.6,13.8,30.10,NW,321,7.5,12.1,37,0.00,,,0.00,VWS V14.01,2013-04-03 15:45:00,
2013-04-03 11:46:00,37.7,14.4,30.10,West,274,6.8,10.9,38,0.00,,,0.00,VWS V14.01,2013-04-03 15:46:00,
2013-04-03 11:47:00,37.6,14.7,30.10,North,359,5.8,8.6,39,0.00,,,0.00,VWS V14.01,2013-04-03 15:47:00,
2013-04-03 11:48:00,37.6,14.4,30.10,NNE,17,5.0,10.9,38,0.00,,,0.00,VWS V14.01,2013-04-03 15:48:00,
2013-04-03 11:49:00,37.6,14.8,30.10,NNW,347,5.8,8.6,39,0.00,,,0.00,VWS V14.01,2013-04-03 15:49:00,
2013-04-03 11:50:00,37.7,15.3,30.10,NW,312,6.6,13.2,40,0.00,,,0.00,VWS V14.01,2013-04-03 15:50:00,
2013-04-03 11:51:00,37.9,15.4,30.10,NW,323,0.0,8.3,39,0.00,,,0.00,VWS V14.01,2013-04-03 15:51:00,
2013-04-03 11:52:00,38.5,15.4,30.10,NW,323,0.0,0.0,38,0.00,,,0.00,VWS V14.01,2013-04-03 15:52:00,
2013-04-03 11:53:00,38.3,15.6,30.10,NW,323,0.0,0.0,39,0.00,,,0.00,VWS V14.01,2013-04-03 15:53:00,
2013-04-03 11:54:00,38.5,15.4,30.10,NW,323,0.0,0.0,38,0.00,,,0.00,VWS V14.01,2013-04-03 15:54:00,
2013-04-03 11:55:00,38.6,15.1,30.10,North,356,10.6,12.9,38,0.00,,,0.00,VWS V14.01,2013-04-03 15:55:00,
2013-04-03 11:56:00,38.5,14.9,30.10,NW,315,7.3,13.8,38,0.00,,,0.00,VWS V14.01,2013-04-03 15:56:00,
2013-04-03 11:57:00,37.6,14.1,30.09,NNW,345,9.3,13.4,38,0.00,,,0.00,VWS V14.01,2013-04-03 15:57:00,
2013-04-03 11:58:00,38.2,14.5,30.10,North,359,7.7,12.3,37,0.00,,,0.00,VWS V14.01,2013-04-03 15:58:00,
2013-04-03 11:59:00,37.8,14.4,30.09,NNW,329,13.4,17.8,38,0.00,,,0.00,VWS V14.01,2013-04-03 15:59:00,
2013-04-03 12:00:00,37.7,14.6,30.09,WNW,294,5.7,13.4,38,0.00,,,0.00,VWS V14.01,2013-04-03 16:00:00,
2013-04-03 12:01:00,37.7,14.6,30.10,WSW,243,5.8,9.0,38,0.00,,,0.00,VWS V14.01,2013-04-03 16:01:00,
2013-04-03 12:02:00,37.9,15.4,30.10,NW,309,0.0,8.1,39,0.00,,,0.00,VWS V14.01,2013-04-03 16:02:00,
2013-04-03 12:03:00,37.8,15.4,30.10,WNW,294,0.0,4.4,40,0.00,,,0.00,VWS V14.01,2013-04-03 16:03:00,
2013-04-03 12:04:00,37.9,15.3,30.10,West,263,0.0,10.6,39,0.00,,,0.00,VWS V14.01,2013-04-03 16:04:00,
2013-04-03 12:05:00,38.0,15.7,30.10,WNW,287,3.2,8.1,40,0.00,,,0.00,VWS V14.01,2013-04-03 16:05:00,
2013-04-03 12:06:00,38.1,15.6,30.10,WNW,291,0.0,3.4,40,0.00,,,0.00,VWS V14.01,2013-04-03 16:06:00,
2013-04-03 12:07:00,38.3,15.8,30.09,WNW,287,0.0,0.0,39,0.00,,,0.00,VWS V14.01,2013-04-03 16:07:00,
2013-04-03 12:08:00,38.2,15.7,30.10,WNW,290,5.7,5.7,39,0.00,,,0.00,VWS V14.01,2013-04-03 16:08:00,
2013-04-03 12:09:00,38.3,16.0,30.09,WNW,287,0.0,10.9,40,0.00,,,0.00,VWS V14.01,2013-04-03 16:09:00,
2013-04-03 12:10:00,38.4,15.7,30.09,WNW,287,0.0,0.0,39,0.00,,,0.00,VWS V14.01,2013-04-03 16:10:00,
2013-04-03 12:11:00,38.5,15.9,30.09,West,277,8.8,9.9,39,0.00,,,0.00,VWS V14.01,2013-04-03 16:11:00,
2013-04-03 12:12:00,38.1,15.2,30.09,West,273,15.1,15.1,39,0.00,,,0.00,VWS V14.01,2013-04-03 16:12:00,
2013-04-03 12:13:00,38.3,14.8,30.09,NW,311,0.0,15.2,38,0.00,,,0.00,VWS V14.01,2013-04-03 16:13:00,
2013-04-03 12:14:00,38.2,15.2,30.09,West,276,8.3,8.3,39,0.00,,,0.00,VWS V14.01,2013-04-03 16:14:00,
2013-04-03 12:15:00,38.0,14.8,30.09,WSW,246,9.8,17.1,38,0.00,,,0.00,VWS V14.01,2013-04-03 16:15:00,
2013-04-03 12:16:00,37.9,14.9,30.09,WNW,301,8.6,15.2,39,0.00,,,0.00,VWS V14.01,2013-04-03 16:16:00,
2013-04-03 12:17:00,38.0,15.2,30.09,West,277,11.6,15.8,39,0.00,,,0.00,VWS V14.01,2013-04-03 16:17:00,
2013-04-03 12:18:00,38.6,16.0,30.09,WNW,300,0.0,0.0,39,0.00,,,0.00,VWS V14.01,2013-04-03 16:18:00,
2013-04-03 12:19:00,38.4,16.0,30.09,WNW,300,5.0,9.5,40,0.00,,,0.00,VWS V14.01,2013-04-03 16:19:00,
2013-04-03 12:20:00,38.6,16.0,30.09,WNW,300,0.0,5.0,39,0.00,,,0.00,VWS V14.01,2013-04-03 16:20:00,
2013-04-03 12:21:00,39.0,16.3,30.09,NW,304,0.0,7.0,39,0.00,,,0.00,VWS V14.01,2013-04-03 16:21:00,
2013-04-03 12:22:00,39.2,15.6,30.09,WNW,283,0.0,8.9,38,0.00,,,0.00,VWS V14.01,2013-04-03 16:22:00,
2013-04-03 12:23:00,39.9,16.0,30.09,WNW,283,0.0,0.0,37,0.00,,,0.00,VWS V14.01,2013-04-03 16:23:00,
2013-04-03 12:24:00,39.6,16.1,30.09,WNW,283,0.0,0.0,38,0.00,,,0.00,VWS V14.01,2013-04-03 16:24:00,
2013-04-03 12:25:00,39.9,16.0,30.09,WNW,283,0.0,0.0,37,0.00,,,0.00,VWS V14.01,2013-04-03 16:25:00,
2013-04-03 12:26:00,40.1,15.9,30.09,WSW,257,3.4,10.6,37,0.00,,,0.00,VWS V14.01,2013-04-03 16:26:00,
2013-04-03 12:27:00,40.3,15.9,30.09,WSW,257,0.0,3.4,37,0.00,,,0.00,VWS V14.01,2013-04-03 16:27:00,
2013-04-03 12:28:00,40.2,15.8,30.09,NW,321,0.0,6.6,37,0.00,,,0.00,VWS V14.01,2013-04-03 16:28:00,
2013-04-03 12:29:00,40.2,15.5,30.09,NW,311,6.6,13.0,36,0.00,,,0.00,VWS V14.01,2013-04-03 16:29:00,
2013-04-03 12:30:00,40.2,15.8,30.09,NW,321,0.0,6.6,37,0.00,,,0.00,VWS V14.01,2013-04-03 16:30:00,
2013-04-03 12:31:00,40.4,15.9,30.09,WNW,283,10.2,10.3,37,0.00,,,0.00,VWS V14.01,2013-04-03 16:31:00,
2013-04-03 12:32:00,40.4,15.1,30.09,NW,321,5.3,10.4,35,0.00,,,0.00,VWS V14.01,2013-04-03 16:32:00,
2013-04-03 12:33:00,40.5,16.2,30.09,WNW,291,3.5,10.3,37,0.00,,,0.00,VWS V14.01,2013-04-03 16:33:00,
2013-04-03 12:34:00,40.4,15.6,30.09,SW,224,4.2,9.9,36,0.00,,,0.00,VWS V14.01,2013-04-03 16:34:00,
2013-04-03 12:35:00,40.5,16.2,30.09,WNW,291,3.5,10.3,37,0.00,,,0.00,VWS V14.01,2013-04-03 16:35:00,
2013-04-03 12:36:00,40.6,15.3,30.09,NNW,338,8.5,11.2,35,0.00,,,0.00,VWS V14.01,2013-04-03 16:36:00,
2013-04-03 12:37:00,40.5,15.1,30.09,NW,321,4.4,11.6,35,0.00,,,0.00,VWS V14.01,2013-04-03 16:37:00,
2013-04-03 12:38:00,41.2,16.5,30.09,West,270,0.0,0.0,36,0.00,,,0.00,VWS V14.01,2013-04-03 16:38:00,
2013-04-03 12:39:00,41.0,16.5,30.09,West,270,0.0,13.8,37,0.00,,,0.00,VWS V14.01,2013-04-03 16:39:00,
2013-04-03 12:40:00,41.2,16.5,30.09,West,270,0.0,0.0,36,0.00,,,0.00,VWS V14.01,2013-04-03 16:40:00,
2013-04-03 12:41:00,41.3,16.3,30.09,West,280,7.1,9.1,36,0.00,,,0.00,VWS V14.01,2013-04-03 16:41:00,
2013-04-03 12:42:00,41.4,15.9,30.09,NW,308,6.4,8.7,35,0.00,,,0.00,VWS V14.01,2013-04-03 16:42:00,
2013-04-03 12:43:00,41.2,15.4,30.09,WSW,255,5.7,11.4,35,0.00,,,0.00,VWS V14.01,2013-04-03 16:43:00,
2013-04-03 12:44:00,41.2,15.8,30.09,WNW,287,9.4,10.9,35,0.00,,,0.00,VWS V14.01,2013-04-03 16:44:00,
2013-04-03 12:45:00,41.2,15.4,30.09,WSW,255,5.7,11.4,35,0.00,,,0.00,VWS V14.01,2013-04-03 16:45:00,
2013-04-03 12:46:00,41.0,14.7,30.09,WNW,291,3.2,15.1,34,0.00,,,0.00,VWS V14.01,2013-04-03 16:46:00,
2013-04-03 12:47:00,41.2,16.0,30.09,WNW,284,5.2,8.0,36,0.00,,,0.00,VWS V14.01,2013-04-03 16:47:00,
2013-04-03 12:48:00,41.4,15.4,30.09,WNW,288,1.9,9.2,34,0.00,,,0.00,VWS V14.01,2013-04-03 16:48:00,
2013-04-03 12:49:00,41.5,15.6,30.09,NW,314,0.0,3.2,35,0.00,,,0.00,VWS V14.01,2013-04-03 16:49:00,
2013-04-03 12:50:00,41.4,15.4,30.09,WNW,288,1.9,9.2,34,0.00,,,0.00,VWS V14.01,2013-04-03 16:50:00,
2013-04-03 12:51:00,41.3,15.1,30.09,North,1,0.0,13.0,34,0.00,,,0.00,VWS V14.01,2013-04-03 16:51:00,
2013-04-03 12:52:00,41.4,16.1,30.09,North,359,0.0,4.8,35,0.00,,,0.00,VWS V14.01,2013-04-03 16:52:00,
2013-04-03 12:53:00,40.9,14.0,30.09,SW,229,6.8,11.6,33,0.00,,,0.00,VWS V14.01,2013-04-03 16:53:00,
2013-04-03 12:54:00,41.2,14.6,30.09,NW,308,5.9,12.6,34,0.00,,,0.00,VWS V14.01,2013-04-03 16:54:00,
2013-04-03 12:55:00,40.9,14.0,30.09,SW,229,6.8,11.6,33,0.00,,,0.00,VWS V14.01,2013-04-03 16:55:00,
2013-04-03 12:56:00,40.8,13.9,30.09,WNW,283,16.7,17.8,33,0.00,,,0.00,VWS V14.01,2013-04-03 16:56:00,
2013-04-03 12:57:00,40.3,13.8,30.09,NNE,25,0.0,20.0,34,0.00,,,0.00,VWS V14.01,2013-04-03 16:57:00,
2013-04-03 12:58:00,40.6,15.1,30.09,West,280,0.0,15.5,35,0.00,,,0.00,VWS V14.01,2013-04-03 16:58:00,
2013-04-03 12:59:00,40.5,14.8,30.09,West,276,0.0,8.6,35,0.00,,,0.00,VWS V14.01,2013-04-03 16:59:00,
2013-04-03 13:00:00,40.6,15.1,30.09,West,280,0.0,15.5,35,0.00,,,0.00,VWS V14.01,2013-04-03 17:00:00,
2013-04-03 13:01:00,40.6,14.5,30.09,NW,316,0.0,5.9,34,0.00,,,0.00,VWS V14.01,2013-04-03 17:01:00,
2013-04-03 13:02:00,40.7,14.9,30.09,NW,316,0.0,0.0,35,0.00,,,0.00,VWS V14.01,2013-04-03 17:02:00,
2013-04-03 13:03:00,40.5,14.6,30.09,NW,322,0.0,0.0,34,0.00,,,0.00,VWS V14.01,2013-04-03 17:03:00,
2013-04-03 13:04:00,40.4,14.5,30.09,NNW,330,2.4,7.0,34,0.00,,,0.00,VWS V14.01,2013-04-03 17:04:00,
2013-04-03 13:05:00,40.4,14.3,30.09,NW,322,0.0,9.7,34,0.00,,,0.00,VWS V14.01,2013-04-03 17:05:00,
2013-04-03 13:06:00,40.5,14.5,30.09,NW,322,0.0,0.0,34,0.00,,,0.00,VWS V14.01,2013-04-03 17:06:00,
2013-04-03 13:07:00,40.5,15.1,30.09,NW,322,0.0,0.0,35,0.00,,,0.00,VWS V14.01,2013-04-03 17:07:00,
2013-04-03 13:08:00,40.9,15.2,30.09,West,273,3.5,6.3,35,0.00,,,0.00,VWS V14.01,2013-04-03 17:08:00,
2013-04-03 13:09:00,40.7,14.8,30.09,NNW,332,0.0,8.5,34,0.00,,,0.00,VWS V14.01,2013-04-03 17:09:00,
2013-04-03 13:10:00,40.8,15.4,30.09,NNE,30,3.2,9.6,35,0.00,,,0.00,VWS V14.01,2013-04-03 17:10:00,
2013-04-03 13:11:00,40.9,15.1,30.09,NW,311,6.0,6.8,35,0.00,,,0.00,VWS V14.01,2013-04-03 17:11:00,
2013-04-03 13:12:00,41.1,15.6,30.09,NW,321,6.1,9.5,35,0.00,,,0.00,VWS V14.01,2013-04-03 17:12:00,
2013-04-03 13:13:00,41.1,15.4,30.09,NNW,332,0.0,9.1,35,0.00,,,0.00,VWS V14.01,2013-04-03 17:13:00,
2013-04-03 13:14:00,41.1,15.4,30.09,NNW,329,0.0,14.1,35,0.00,,,0.00,VWS V14.01,2013-04-03 17:14:00,
2013-04-03 13:15:00,40.9,15.4,30.09,NNE,32,0.0,10.4,35,0.00,,,0.00,VWS V14.01,2013-04-03 17:15:00,
2013-04-03 13:16:00,41.0,15.1,30.09,NNW,339,8.7,14.1,34,0.00,,,0.00,VWS V14.01,2013-04-03 17:16:00,
2013-04-03 13:17:00,41.1,15.8,30.09,NNW,333,7.2,10.9,35,0.00,,,0.00,VWS V14.01,2013-04-03 17:17:00,
2013-04-03 13:18:00,41.3,15.8,30.09,NNW,333,0.0,7.2,35,0.00,,,0.00,VWS V14.01,2013-04-03 17:18:00,
2013-04-03 13:19:00,42.0,16.1,30.09,West,280,6.3,10.9,35,0.00,,,0.00,VWS V14.01,2013-04-03 17:19:00,
2013-04-03 13:20:00,41.8,16.3,30.09,NW,319,0.0,0.0,35,0.00,,,0.00,VWS V14.01,2013-04-03 17:20:00,
2013-04-03 13:21:00,42.0,16.1,30.09,West,280,6.3,10.9,35,0.00,,,0.00,VWS V14.01,2013-04-03 17:21:00,
2013-04-03 13:22:00,42.1,15.8,30.09,WSW,245,6.0,12.4,34,0.00,,,0.00,VWS V14.01,2013-04-03 17:22:00,
2013-04-03 13:23:00,42.2,16.0,30.09,West,270,7.8,12.1,34,0.00,,,0.00,VWS V14.01,2013-04-03 17:23:00,
2013-04-03 13:24:00,42.1,15.8,30.08,WNW,295,13.0,18.6,34,0.00,,,0.00,VWS V14.01,2013-04-03 17:24:00,
2013-04-03 13:25:00,42.2,15.4,30.08,WSW,250,9.5,16.0,33,0.00,,,0.00,VWS V14.01,2013-04-03 17:25:00,
2013-04-03 13:26:00,42.1,15.8,30.08,WNW,295,13.0,18.6,34,0.00,,,0.00,VWS V14.01,2013-04-03 17:26:00,
2013-04-03 13:27:00,41.7,14.9,30.08,West,267,10.4,18.2,33,0.00,,,0.00,VWS V14.01,2013-04-03 17:27:00,
2013-04-03 13:28:00,41.4,15.0,30.08,West,273,10.9,16.9,34,0.00,,,0.00,VWS V14.01,2013-04-03 17:28:00,
2013-04-03 13:29:00,41.8,17.0,30.08,WNW,294,8.5,13.3,36,0.00,,,0.00,VWS V14.01,2013-04-03 17:29:00,
2013-04-03 13:30:00,41.5,16.3,30.08,West,278,3.3,10.7,36,0.00,,,0.00,VWS V14.01,2013-04-03 17:30:00,
2013-04-03 13:31:00,41.8,17.0,30.08,WNW,294,8.5,13.3,36,0.00,,,0.00,VWS V14.01,2013-04-03 17:31:00,
2013-04-03 13:32:00,41.9,16.3,30.08,WNW,294,11.7,14.9,35,0.00,,,0.00,VWS V14.01,2013-04-03 17:32:00,
2013-04-03 13:33:00,41.8,15.2,30.09,WNW,291,9.2,15.1,34,0.00,,,0.00,VWS V14.01,2013-04-03 17:33:00,
2013-04-03 13:34:00,41.7,15.6,30.08,West,276,11.5,17.5,34,0.00,,,0.00,VWS V14.01,2013-04-03 17:34:00,
2013-04-03 13:35:00,41.7,14.8,30.08,NW,315,7.9,18.0,33,0.00,,,0.00,VWS V14.01,2013-04-03 17:35:00,
2013-04-03 13:36:00,41.7,15.6,30.08,West,276,11.5,17.5,34,0.00,,,0.00,VWS V14.01,2013-04-03 17:36:00,
2013-04-03 13:37:00,41.8,15.5,30.08,WSW,256,11.7,15.1,34,0.00,,,0.00,VWS V14.01,2013-04-03 17:37:00,
2013-04-03 13:38:00,41.8,15.9,30.08,West,262,14.8,15.8,35,0.00,,,0.00,VWS V14.01,2013-04-03 17:38:00,
2013-04-03 13:39:00,41.8,16.4,30.08,WNW,301,6.3,9.9,35,0.00,,,0.00,VWS V14.01,2013-04-03 17:39:00,
2013-04-03 13:40:00,41.7,14.9,30.08,NW,311,7.8,19.1,33,0.00,,,0.00,VWS V14.01,2013-04-03 17:40:00,
2013-04-03 13:41:00,41.7,15.9,30.08,West,263,9.9,12.2,35,0.00,,,0.00,VWS V14.01,2013-04-03 17:41:00,
2013-04-03 13:42:00,42.0,17.8,30.08,NW,318,0.0,9.9,37,0.00,,,0.00,VWS V14.01,2013-04-03 17:42:00,
2013-04-03 13:43:00,42.4,17.5,30.08,West,274,0.0,3.5,36,0.00,,,0.00,VWS V14.01,2013-04-03 17:43:00,
2013-04-03 13:44:00,42.6,15.5,30.08,NW,319,9.9,12.7,33,0.00,,,0.00,VWS V14.01,2013-04-03 17:44:00,
2013-04-03 13:45:00,42.6,15.9,30.08,NW,308,10.3,12.1,34,0.00,,,0.00,VWS V14.01,2013-04-03 17:45:00,
2013-04-03 13:46:00,42.6,15.5,30.08,NW,319,9.9,12.7,33,0.00,,,0.00,VWS V14.01,2013-04-03 17:46:00,
2013-04-03 13:47:00,42.5,15.9,30.08,West,273,4.7,10.5,34,0.00,,,0.00,VWS V14.01,2013-04-03 17:47:00,
2013-04-03 13:48:00,42.8,16.9,30.08,NW,319,4.2,5.7,35,0.00,,,0.00,VWS V14.01,2013-04-03 17:48:00,
2013-04-03 13:49:00,42.9,16.2,30.08,NNW,333,9.0,10.4,34,0.00,,,0.00,VWS V14.01,2013-04-03 17:49:00,
2013-04-03 13:50:00,43.1,17.0,30.08,West,276,4.2,8.5,34,0.00,,,0.00,VWS V14.01,2013-04-03 17:50:00,
2013-04-03 13:51:00,42.9,16.2,30.08,NNW,333,9.0,10.4,34,0.00,,,0.00,VWS V14.01,2013-04-03 17:51:00,
2013-04-03 13:52:00,42.9,16.3,30.08,NNW,335,8.6,12.0,34,0.00,,,0.00,VWS V14.01,2013-04-03 17:52:00,
2013-04-03 13:53:00,43.0,16.2,30.08,NW,322,0.0,8.6,33,0.00,,,0.00,VWS V14.01,2013-04-03 17:53:00,
2013-04-03 13:54:00,42.7,14.3,30.08,West,266,6.1,10.4,31,0.00,,,0.00,VWS V14.01,2013-04-03 17:54:00,
2013-04-03 13:55:00,43.1,14.9,30.08,NNW,329,8.8,10.9,32,0.00,,,0.00,VWS V14.01,2013-04-03 17:55:00,
2013-04-03 13:56:00,43.1,14.7,30.08,NNE,24,8.9,9.1,31,0.00,,,0.00,VWS V14.01,2013-04-03 17:56:00,
2013-04-03 13:57:00,42.7,14.9,30.08,West,266,0.0,10.4,32,0.00,,,0.00,VWS V14.01,2013-04-03 17:57:00,
2013-04-03 13:58:00,42.7,15.3,30.08,NNW,328,0.0,6.6,33,0.00,,,0.00,VWS V14.01,2013-04-03 17:58:00,
2013-04-03 13:59:00,42.8,15.8,30.08,WNW,285,5.3,11.9,33,0.00,,,0.00,VWS V14.01,2013-04-03 17:59:00,
2013-04-03 14:00:00,43.0,17.0,30.08,NW,312,9.8,10.9,35,0.00,,,0.00,VWS V14.01,2013-04-03 18:00:00,
2013-04-03 14:01:00,42.8,16.0,30.08,NW,308,11.9,13.9,33,0.00,,,0.00,VWS V14.01,2013-04-03 18:01:00,
2013-04-03 14:02:00,42.9,15.8,30.08,West,260,0.0,11.9,33,0.00,,,0.00,VWS V14.01,2013-04-03 18:02:00,
2013-04-03 14:03:00,43.0,16.3,30.08,WNW,283,5.5,11.8,34,0.00,,,0.00,VWS V14.01,2013-04-03 18:03:00,
2013-04-03 14:04:00,43.2,15.6,30.07,WNW,283,12.9,17.0,32,0.00,,,0.00,VWS V14.01,2013-04-03 18:04:00,
2013-04-03 14:05:00,43.3,17.0,30.08,WNW,297,7.9,15.0,34,0.00,,,0.00,VWS V14.01,2013-04-03 18:05:00,
2013-04-03 14:06:00,43.2,15.4,30.07,West,269,4.8,13.6,32,0.00,,,0.00,VWS V14.01,2013-04-03 18:06:00,
2013-04-03 14:07:00,43.1,15.6,30.07,West,264,15.7,17.0,32,0.00,,,0.00,VWS V14.01,2013-04-03 18:07:00,
2013-04-03 14:08:00,43.0,15.5,30.08,WSW,248,6.1,16.9,32,0.00,,,0.00,VWS V14.01,2013-04-03 18:08:00,
2013-04-03 14:09:00,43.0,16.0,30.08,West,280,11.7,15.3,33,0.00,,,0.00,VWS V14.01,2013-04-03 18:09:00,
2013-04-03 14:10:00,42.7,15.1,30.08,NNW,329,3.4,10.7,32,0.00,,,0.00,VWS V14.01,2013-04-03 18:10:00,
2013-04-03 14:11:00,43.1,15.4,30.08,West,277,0.0,11.2,32,0.00,,,0.00,VWS V14.01,2013-04-03 18:11:00,
2013-04-03 14:12:00,42.7,15.1,30.08,NNW,329,3.4,10.8,32,0.00,,,0.00,VWS V14.01,2013-04-03 18:12:00,
2013-04-03 14:13:00,42.9,16.5,30.08,West,280,0.0,7.0,34,0.00,,,0.00,VWS V14.01,2013-04-03 18:13:00,
2013-04-03 14:14:00,43.1,15.7,30.08,WSW,255,12.1,12.1,33,0.00,,,0.00,VWS V14.01,2013-04-03 18:14:00,
2013-04-03 14:15:00,43.0,15.1,30.07,WNW,288,9.0,16.0,32,0.00,,,0.00,VWS V14.01,2013-04-03 18:15:00,
2013-04-03 14:16:00,43.2,15.1,30.07,West,276,12.8,15.8,32,0.00,,,0.00,VWS V14.01,2013-04-03 18:16:00,
2013-04-03 14:17:00,43.1,14.8,30.07,WNW,288,10.5,19.2,31,0.00,,,0.00,VWS V14.01,2013-04-03 18:17:00,
2013-04-03 14:18:00,43.0,14.7,30.07,North,353,7.6,16.0,31,0.00,,,0.00,VWS V14.01,2013-04-03 18:18:00,
2013-04-03 14:19:00,43.1,15.5,30.08,NW,316,9.6,9.6,32,0.00,,,0.00,VWS V14.01,2013-04-03 18:19:00,
2013-04-03 14:20:00,43.6,14.7,30.07,WNW,284,6.8,16.7,31,0.00,,,0.00,VWS V14.01,2013-04-03 18:20:00,
2013-04-03 14:21:00,43.4,15.9,30.08,NNW,346,7.0,8.5,32,0.00,,,0.00,VWS V14.01,2013-04-03 18:21:00,
2013-04-03 14:22:00,43.6,14.8,30.07,WNW,285,10.9,19.3,31,0.00,,,0.00,VWS V14.01,2013-04-03 18:22:00,
2013-04-03 14:23:00,43.6,14.5,30.07,WNW,284,3.4,16.7,30,0.00,,,0.00,VWS V14.01,2013-04-03 18:23:00,
2013-04-03 14:24:00,43.8,15.2,30.07,West,273,0.0,5.3,31,0.00,,,0.00,VWS V14.01,2013-04-03 18:24:00,
2013-04-03 14:25:00,44.4,14.5,30.08,WNW,295,0.0,9.3,29,0.00,,,0.00,VWS V14.01,2013-04-03 18:25:00,
2013-04-03 14:26:00,44.2,15.4,30.08,WNW,295,7.3,8.6,31,0.00,,,0.00,VWS V14.01,2013-04-03 18:26:00,
2013-04-03 14:27:00,44.4,14.7,30.07,NNW,339,7.3,7.3,30,0.00,,,0.00,VWS V14.01,2013-04-03 18:27:00,
2013-04-03 14:28:00,44.4,14.6,30.08,NNW,335,2.7,12.2,30,0.00,,,0.00,VWS V14.01,2013-04-03 18:28:00,
2013-04-03 14:29:00,44.5,14.9,30.07,NNW,335,0.0,2.7,30,0.00,,,0.00,VWS V14.01,2013-04-03 18:29:00,
2013-04-03 14:30:00,44.7,14.5,30.07,NW,304,9.7,15.0,29,0.00,,,0.00,VWS V14.01,2013-04-03 18:30:00,
2013-04-03 14:31:00,44.5,15.5,30.07,North,357,7.4,8.5,31,0.00,,,0.00,VWS V14.01,2013-04-03 18:31:00,
2013-04-03 14:32:00,44.7,15.8,30.07,WNW,301,6.8,8.0,31,0.00,,,0.00,VWS V14.01,2013-04-03 18:32:00,
2013-04-03 14:33:00,44.7,14.6,30.07,WNW,297,7.0,15.0,29,0.00,,,0.00,VWS V14.01,2013-04-03 18:33:00,
2013-04-03 14:34:00,44.4,14.3,30.07,South,187,0.0,11.0,29,0.00,,,0.00,VWS V14.01,2013-04-03 18:34:00,
2013-04-03 14:35:00,44.4,15.5,30.07,WSW,257,7.0,8.9,31,0.00,,,0.00,VWS V14.01,2013-04-03 18:35:00,
2013-04-03 14:36:00,44.8,15.1,30.07,NNW,345,8.0,8.6,30,0.00,,,0.00,VWS V14.01,2013-04-03 18:36:00,
2013-04-03 14:37:00,44.7,16.0,30.07,WNW,290,3.0,5.4,31,0.00,,,0.00,VWS V14.01,2013-04-03 18:37:00,
2013-04-03 14:38:00,44.8,15.1,30.07,NNW,345,8.0,8.6,30,0.00,,,0.00,VWS V14.01,2013-04-03 18:38:00,
2013-04-03 14:39:00,44.7,15.5,30.07,NW,315,5.2,8.9,30,0.00,,,0.00,VWS V14.01,2013-04-03 18:39:00,
2013-04-03 14:40:00,44.7,14.6,30.07,NW,311,0.0,5.2,29,0.00,,,0.00,VWS V14.01,2013-04-03 18:40:00,
2013-04-03 14:41:00,44.3,14.7,30.08,NNW,336,8.1,11.6,30,0.00,,,0.00,VWS V14.01,2013-04-03 18:41:00,
2013-04-03 14:42:00,44.5,14.9,30.07,NNW,333,4.7,9.3,30,0.00,,,0.00,VWS V14.01,2013-04-03 18:42:00,
2013-04-03 14:43:00,44.3,14.7,30.08,NNW,336,8.1,11.6,30,0.00,,,0.00,VWS V14.01,2013-04-03 18:43:00,
2013-04-03 14:44:00,44.1,14.4,30.07,WNW,300,0.0,12.2,30,0.00,,,0.00,VWS V14.01,2013-04-03 18:44:00,
2013-04-03 14:45:00,44.1,14.7,30.07,WNW,295,0.0,3.4,30,0.00,,,0.00,VWS V14.01,2013-04-03 18:45:00,
2013-04-03 14:46:00,44.2,15.6,30.07,WNW,301,4.7,13.0,31,0.00,,,0.00,VWS V14.01,2013-04-03 18:46:00,
2013-04-03 14:47:00,44.1,15.5,30.07,West,263,8.5,9.8,31,0.00,,,0.00,VWS V14.01,2013-04-03 18:47:00,
2013-04-03 14:48:00,44.2,15.6,30.07,WNW,301,4.7,13.0,31,0.00,,,0.00,VWS V14.01,2013-04-03 18:48:00,
2013-04-03 14:49:00,44.4,16.2,30.07,West,271,0.0,7.3,32,0.00,,,0.00,VWS V14.01,2013-04-03 18:49:00,
2013-04-03 14:50:00,44.4,15.8,30.07,NNW,330,0.0,2.5,31,0.00,,,0.00,VWS V14.01,2013-04-03 18:50:00,
2013-04-03 14:51:00,44.7,16.2,30.08,NW,309,3.0,8.2,31,0.00,,,0.00,VWS V14.01,2013-04-03 18:51:00,
2013-04-03 14:52:00,44.8,15.6,30.08,NW,308,6.5,13.3,30,0.00,,,0.00,VWS V14.01,2013-04-03 18:52:00,
2013-04-03 14:53:00,44.7,16.2,30.08,NW,309,3.0,8.2,31,0.00,,,0.00,VWS V14.01,2013-04-03 18:53:00,
2013-04-03 14:54:00,44.8,16.1,30.08,WSW,250,9.7,11.8,31,0.00,,,0.00,VWS V14.01,2013-04-03 18:54:00,
2013-04-03 14:55:00,44.7,16.2,30.08,NNW,345,7.1,9.7,31,0.00,,,0.00,VWS V14.01,2013-04-03 18:55:00,
2013-04-03 14:56:00,44.8,16.3,30.07,West,263,4.8,6.3,31,0.00,,,0.00,VWS V14.01,2013-04-03 18:56:00,
2013-04-03 14:57:00,44.7,15.9,30.08,NNW,328,0.0,5.2,31,0.00,,,0.00,VWS V14.01,2013-04-03 18:57:00,
2013-04-03 14:58:00,44.8,16.3,30.07,West,263,4.8,6.3,31,0.00,,,0.00,VWS V14.01,2013-04-03 18:58:00,
2013-04-03 14:59:00,45.0,17.0,30.07,West,263,0.0,5.4,32,0.00,,,0.00,VWS V14.01,2013-04-03 18:59:00,
2013-04-03 15:00:00,45.2,16.6,30.07,West,263,0.0,0.0,31,0.00,,,0.00,VWS V14.01,2013-04-03 19:00:00,
2013-04-03 15:01:00,45.3,16.0,30.07,SW,225,8.4,13.4,30,0.00,,,0.00,VWS V14.01,2013-04-03 19:01:00,
2013-04-03 15:02:00,45.4,16.6,30.07,West,280,9.6,12.7,31,0.00,,,0.00,VWS V14.01,2013-04-03 19:02:00,
2013-04-03 15:03:00,45.3,16.0,30.07,SW,225,8.4,13.4,30,0.00,,,0.00,VWS V14.01,2013-04-03 19:03:00,
2013-04-03 15:04:00,45.2,15.7,30.07,WNW,287,6.8,11.1,30,0.00,,,0.00,VWS V14.01,2013-04-03 19:04:00,
2013-04-03 15:05:00,44.9,15.1,30.07,WNW,287,8.9,12.2,30,0.00,,,0.00,VWS V14.01,2013-04-03 19:05:00,
2013-04-03 15:06:00,44.7,16.3,30.07,NNW,333,4.9,10.9,32,0.00,,,0.00,VWS V14.01,2013-04-03 19:06:00,
2013-04-03 15:07:00,44.5,15.6,30.07,SSW,211,0.0,8.8,31,0.00,,,0.00,VWS V14.01,2013-04-03 19:07:00,
2013-04-03 15:08:00,44.7,16.3,30.07,NNW,333,4.9,10.9,32,0.00,,,0.00,VWS V14.01,2013-04-03 19:08:00,
2013-04-03 15:09:00,44.9,16.6,30.07,NW,305,0.0,7.4,32,0.00,,,0.00,VWS V14.01,2013-04-03 19:09:00,
2013-04-03 15:10:00,44.8,15.4,30.07,WNW,284,7.8,10.9,30,0.00,,,0.00,VWS V14.01,2013-04-03 19:10:00,
2013-04-03 15:11:00,45.0,16.2,30.07,West,278,0.0,7.8,31,0.00,,,0.00,VWS V14.01,2013-04-03 19:11:00,
2013-04-03 15:12:00,44.8,15.8,30.07,WSW,243,0.0,9.7,31,0.00,,,0.00,VWS V14.01,2013-04-03 19:12:00,
2013-04-03 15:13:00,45.0,16.2,30.07,West,278,0.0,7.8,31,0.00,,,0.00,VWS V14.01,2013-04-03 19:13:00,
2013-04-03 15:14:00,44.9,16.0,30.07,NW,315,5.3,8.8,31,0.00,,,0.00,VWS V14.01,2013-04-03 19:14:00,
2013-04-03 15:15:00,45.0,16.0,30.07,NNW,338,3.4,6.6,31,0.00,,,0.00,VWS V14.01,2013-04-03 19:15:00,
2013-04-03 15:16:00,45.1,16.7,30.07,West,276,0.0,4.8,32,0.00,,,0.00,VWS V14.01,2013-04-03 19:16:00,
2013-04-03 15:17:00,44.7,15.6,30.07,WNW,287,9.9,19.4,30,0.00,,,0.00,VWS V14.01,2013-04-03 19:17:00,
2013-04-03 15:18:00,45.3,15.9,30.07,WNW,285,11.2,13.9,30,0.00,,,0.00,VWS V14.01,2013-04-03 19:18:00,
2013-04-03 15:19:00,44.7,15.3,30.07,WNW,294,7.0,19.4,30,0.00,,,0.00,VWS V14.01,2013-04-03 19:19:00,
2013-04-03 15:20:00,44.8,15.9,30.07,NW,307,7.8,15.1,31,0.00,,,0.00,VWS V14.01,2013-04-03 19:20:00,
2013-04-03 15:21:00,44.9,15.9,30.07,WNW,290,0.0,12.1,31,0.00,,,0.00,VWS V14.01,2013-04-03 19:21:00,
2013-04-03 15:22:00,44.9,16.0,30.07,NW,318,0.0,9.9,31,0.00,,,0.00,VWS V14.01,2013-04-03 19:22:00,
2013-04-03 15:23:00,45.0,15.7,30.07,NW,318,8.2,9.3,30,0.00,,,0.00,VWS V14.01,2013-04-03 19:23:00,
2013-04-03 15:24:00,44.9,16.0,30.07,NW,318,0.0,9.9,31,0.00,,,0.00,VWS V14.01,2013-04-03 19:24:00,
2013-04-03 15:25:00,45.1,16.6,30.07,WNW,283,5.6,8.2,31,0.00,,,0.00,VWS V14.01,2013-04-03 19:25:00,
2013-04-03 15:26:00,45.0,15.4,30.07,NW,312,5.3,11.0,30,0.00,,,0.00,VWS V14.01,2013-04-03 19:26:00,
2013-04-03 15:27:00,45.3,16.3,30.07,NNW,336,3.4,5.2,31,0.00,,,0.00,VWS V14.01,2013-04-03 19:27:00,
2013-04-03 15:28:00,45.1,16.3,30.07,WNW,285,5.2,8.9,31,0.00,,,0.00,VWS V14.01,2013-04-03 19:28:00,
2013-04-03 15:29:00,45.3,16.3,30.07,NNW,336,3.4,5.2,31,0.00,,,0.00,VWS V14.01,2013-04-03 19:29:00,
2013-04-03 15:30:00,45.4,16.0,30.07,NW,311,3.4,12.7,30,0.00,,,0.00,VWS V14.01,2013-04-03 19:30:00,
2013-04-03 15:31:00,45.6,16.4,30.07,NW,311,0.0,4.2,31,0.00,,,0.00,VWS V14.01,2013-04-03 19:31:00,
2013-04-03 15:32:00,45.8,14.7,30.07,NNE,20,0.0,7.1,28,0.00,,,0.00,VWS V14.01,2013-04-03 19:32:00,
2013-04-03 15:33:00,45.8,15.5,30.07,West,259,7.0,7.2,29,0.00,,,0.00,VWS V14.01,2013-04-03 19:33:00,
2013-04-03 15:34:00,45.8,14.7,30.07,NNE,20,0.0,7.1,28,0.00,,,0.00,VWS V14.01,2013-04-03 19:34:00,
2013-04-03 15:35:00,45.9,15.1,30.07,NNE,20,0.0,3.4,28,0.00,,,0.00,VWS V14.01,2013-04-03 19:35:00,
2013-04-03 15:36:00,45.9,15.1,30.07,NW,322,5.4,6.9,29,0.00,,,0.00,VWS V14.01,2013-04-03 19:36:00,
2013-04-03 15:37:00,44.9,14.3,30.07,NNW,335,9.4,12.2,29,0.00,,,0.00,VWS V14.01,2013-04-03 19:37:00,
2013-04-03 15:38:00,45.0,14.8,30.07,NNE,20,7.3,12.6,29,0.00,,,0.00,VWS V14.01,2013-04-03 19:38:00,
2013-04-03 15:39:00,44.9,14.3,30.07,NNW,335,9.4,12.2,29,0.00,,,0.00,VWS V14.01,2013-04-03 19:39:00,
2013-04-03 15:40:00,44.6,14.1,30.07,North,359,0.0,16.3,29,0.00,,,0.00,VWS V14.01,2013-04-03 19:40:00,
2013-04-03 15:41:00,44.6,13.4,30.07,North,359,7.3,13.4,28,0.00,,,0.00,VWS V14.01,2013-04-03 19:41:00,
2013-04-03 15:42:00,44.4,15.0,30.07,WNW,294,0.0,13.2,30,0.00,,,0.00,VWS V14.01,2013-04-03 19:42:00,
2013-04-03 15:43:00,44.1,14.4,30.07,NW,318,0.0,10.4,30,0.00,,,0.00,VWS V14.01,2013-04-03 19:43:00,
2013-04-03 15:44:00,44.4,15.0,30.07,WNW,294,0.0,13.2,30,0.00,,,0.00,VWS V14.01,2013-04-03 19:44:00,
2013-04-03 15:45:00,44.5,14.4,30.07,NNW,338,7.0,7.0,29,0.00,,,0.00,VWS V14.01,2013-04-03 19:45:00,
2013-04-03 15:46:00,44.6,14.6,30.07,NNW,332,0.0,7.4,29,0.00,,,0.00,VWS V14.01,2013-04-03 19:46:00,
2013-04-03 15:47:00,44.0,14.2,30.07,West,277,5.2,16.3,30,0.00,,,0.00,VWS V14.01,2013-04-03 19:47:00,
2013-04-03 15:48:00,44.1,13.6,30.07,NNW,342,16.3,16.3,29,0.00,,,0.00,VWS V14.01,2013-04-03 19:48:00,
2013-04-03 15:49:00,44.0,14.2,30.07,West,277,5.2,16.3,30,0.00,,,0.00,VWS V14.01,2013-04-03 19:49:00,
2013-04-03 15:50:00,44.1,14.8,30.07,West,266,2.7,14.4,30,0.00,,,0.00,VWS V14.01,2013-04-03 19:50:00,
2013-04-03 15:51:00,44.2,14.8,30.07,West,266,0.0,2.7,30,0.00,,,0.00,VWS V14.01,2013-04-03 19:51:00,
2013-04-03 15:52:00,44.4,14.3,30.07,North,10,8.9,13.9,29,0.00,,,0.00,VWS V14.01,2013-04-03 19:52:00,
2013-04-03 15:53:00,44.5,14.9,30.07,NNW,340,6.9,6.9,30,0.00,,,0.00,VWS V14.01,2013-04-03 19:53:00,
2013-04-03 15:54:00,44.4,14.3,30.07,North,10,8.9,13.9,29,0.00,,,0.00,VWS V14.01,2013-04-03 19:54:00,
2013-04-03 15:55:00,44.5,15.1,30.07,WNW,302,9.5,9.5,30,0.00,,,0.00,VWS V14.01,2013-04-03 19:55:00,
2013-04-03 15:56:00,44.6,14.6,30.08,NW,318,8.7,14.9,29,0.00,,,0.00,VWS V14.01,2013-04-03 19:56:00,
2013-04-03 15:57:00,44.7,15.2,30.07,NNW,335,10.3,12.7,30,0.00,,,0.00,VWS V14.01,2013-04-03 19:57:00,
2013-04-03 15:58:00,44.7,15.4,30.08,NNW,340,0.0,6.1,30,0.00,,,0.00,VWS V14.01,2013-04-03 19:58:00,
2013-04-03 15:59:00,44.7,15.2,30.07,NNW,335,10.3,12.7,30,0.00,,,0.00,VWS V14.01,2013-04-03 19:59:00,
2013-04-03 16:00:00,44.8,15.0,30.07,WSW,249,0.0,10.8,30,0.00,,,0.00,VWS V14.01,2013-04-03 20:00:00,
2013-04-03 16:01:00,44.9,14.4,30.07,North,10,14.2,16.3,29,0.00,,,0.00,VWS V14.01,2013-04-03 20:01:00,
2013-04-03 16:02:00,44.5,14.7,30.08,West,276,0.0,8.0,30,0.00,,,0.00,VWS V14.01,2013-04-03 20:02:00,
2013-04-03 16:03:00,44.5,14.1,30.07,NW,311,7.8,15.1,29,0.00,,,0.00,VWS V14.01,2013-04-03 20:03:00,
2013-04-03 16:04:00,44.5,14.7,30.08,West,276,0.0,8.0,30,0.00,,,0.00,VWS V14.01,2013-04-03 20:04:00,
2013-04-03 16:05:00,44.7,15.9,30.07,WNW,295,2.6,13.5,31,0.00,,,0.00,VWS V14.01,2013-04-03 20:05:00,
2013-04-03 16:06:00,45.0,15.7,30.07,NNW,335,0.0,6.3,30,0.00,,,0.00,VWS V14.01,2013-04-03 20:06:00,
2013-04-03 16:07:00,45.0,14.8,30.07,WNW,285,5.2,5.2,29,0.00,,,0.00,VWS V14.01,2013-04-03 20:07:00,
2013-04-03 16:08:00,45.0,14.7,30.08,NW,309,5.1,13.0,29,0.00,,,0.00,VWS V14.01,2013-04-03 20:08:00,
2013-04-03 16:09:00,45.0,14.8,30.07,WNW,285,5.2,11.3,29,0.00,,,0.00,VWS V14.01,2013-04-03 20:09:00,
2013-04-03 16:10:00,45.1,15.4,30.08,NW,326,8.1,8.1,30,0.00,,,0.00,VWS V14.01,2013-04-03 20:10:00,
2013-04-03 16:11:00,45.0,14.7,30.08,WNW,288,6.5,14.2,29,0.00,,,0.00,VWS V14.01,2013-04-03 20:11:00,
2013-04-03 16:12:00,45.1,15.1,30.08,WNW,292,0.0,9.6,30,0.00,,,0.00,VWS V14.01,2013-04-03 20:12:00,
2013-04-03 16:13:00,45.0,15.2,30.08,NW,314,6.5,10.4,30,0.00,,,0.00,VWS V14.01,2013-04-03 20:13:00,
2013-04-03 16:14:00,45.1,15.1,30.08,WNW,292,0.0,9.6,30,0.00,,,0.00,VWS V14.01,2013-04-03 20:14:00,
2013-04-03 16:15:00,45.2,15.3,30.08,West,264,0.0,8.9,30,0.00,,,0.00,VWS V14.01,2013-04-03 20:15:00,
2013-04-03 16:16:00,45.3,15.6,30.07,West,266,0.0,8.1,30,0.00,,,0.00,VWS V14.01,2013-04-03 20:16:00,
2013-04-03 16:17:00,45.7,15.8,30.07,West,270,0.0,6.4,30,0.00,,,0.00,VWS V14.01,2013-04-03 20:17:00,
2013-04-03 16:18:00,45.6,15.9,30.07,North,359,3.2,9.5,30,0.00,,,0.00,VWS V14.01,2013-04-03 20:18:00,
2013-04-03 16:19:00,45.7,15.8,30.07,West,270,0.0,6.4,30,0.00,,,0.00,VWS V14.01,2013-04-03 20:19:00,
2013-04-03 16:20:00,45.7,15.4,30.07,NNW,329,8.5,8.7,29,0.00,,,0.00,VWS V14.01,2013-04-03 20:20:00,
2013-04-03 16:21:00,45.8,15.8,30.08,WNW,290,0.0,9.9,30,0.00,,,0.00,VWS V14.01,2013-04-03 20:21:00,
2013-04-03 16:22:00,45.9,15.4,30.08,West,263,0.0,4.3,29,0.00,,,0.00,VWS V14.01,2013-04-03 20:22:00,
2013-04-03 16:23:00,46.0,15.8,30.08,WNW,295,0.0,0.0,29,0.00,,,0.00,VWS V14.01,2013-04-03 20:23:00,
2013-04-03 16:24:00,45.9,15.4,30.08,West,263,0.0,4.3,29,0.00,,,0.00,VWS V14.01,2013-04-03 20:24:00,
2013-04-03 16:25:00,46.1,15.9,30.08,WNW,300,0.0,3.4,29,0.00,,,0.00,VWS V14.01,2013-04-03 20:25:00,
2013-04-03 16:26:00,46.2,15.8,30.08,WSW,256,0.0,7.8,29,0.00,,,0.00,VWS V14.01,2013-04-03 20:26:00,
2013-04-03 16:27:00,46.1,15.1,30.08,NW,315,0.0,0.0,28,0.00,,,0.00,VWS V14.01,2013-04-03 20:27:00,
2013-04-03 16:28:00,46.1,15.4,30.08,WNW,298,8.6,9.9,29,0.00,,,0.00,VWS V14.01,2013-04-03 20:28:00,
2013-04-03 16:29:00,46.1,15.1,30.08,NW,315,0.0,9.8,28,0.00,,,0.00,VWS V14.01,2013-04-03 20:29:00,
2013-04-03 16:30:00,46.0,14.9,30.08,NNW,342,5.1,5.1,28,0.00,,,0.00,VWS V14.01,2013-04-03 20:30:00,
2013-04-03 16:31:00,45.9,15.5,30.08,NW,319,4.8,6.4,29,0.00,,,0.00,VWS V14.01,2013-04-03 20:31:00,
2013-04-03 16:32:00,45.8,16.5,30.08,WSW,246,8.1,17.0,30,0.00,,,0.00,VWS V14.01,2013-04-03 20:32:00,
2013-04-03 16:33:00,45.8,15.6,30.08,NW,319,0.0,1.9,29,0.00,,,0.00,VWS V14.01,2013-04-03 20:33:00,
2013-04-03 16:34:00,45.8,15.9,30.08,NW,319,3.4,3.4,30,0.00,,,0.00,VWS V14.01,2013-04-03 20:34:00,
2013-04-03 16:35:00,45.9,16.3,30.08,NW,319,9.5,17.0,30,0.00,,,0.00,VWS V14.01,2013-04-03 20:35:00,
2013-04-03 16:36:00,45.8,15.8,30.08,WNW,302,4.3,16.8,30,0.00,,,0.00,VWS V14.01,2013-04-03 20:36:00,
2013-04-03 16:37:00,45.9,16.7,30.08,North,6,0.0,9.9,31,0.00,,,0.00,VWS V14.01,2013-04-03 20:37:00,
2013-04-03 16:38:00,46.0,16.3,30.08,WNW,297,8.3,9.2,30,0.00,,,0.00,VWS V14.01,2013-04-03 20:38:00,
2013-04-03 16:39:00,46.1,16.5,30.08,WNW,285,12.5,12.5,30,0.00,,,0.00,VWS V14.01,2013-04-03 20:39:00,
2013-04-03 16:40:00,46.0,16.3,30.08,NW,316,9.2,12.5,30,0.00,,,0.00,VWS V14.01,2013-04-03 20:40:00,
2013-04-03 16:41:00,45.9,16.0,30.08,West,281,3.5,10.9,30,0.00,,,0.00,VWS V14.01,2013-04-03 20:41:00,
2013-04-03 16:42:00,45.8,16.6,30.08,West,263,0.0,12.1,31,0.00,,,0.00,VWS V14.01,2013-04-03 20:42:00,
2013-04-03 16:43:00,45.3,15.8,30.08,WNW,302,4.2,4.2,30,0.00,,,0.00,VWS V14.01,2013-04-03 20:43:00,
2013-04-03 16:44:00,45.7,15.6,30.08,WNW,290,5.2,15.3,29,0.00,,,0.00,VWS V14.01,2013-04-03 20:44:00,
2013-04-03 16:45:00,45.3,15.8,30.08,WNW,302,4.2,15.1,30,0.00,,,0.00,VWS V14.01,2013-04-03 20:45:00,
2013-04-03 16:46:00,45.2,16.3,30.08,NNW,328,6.4,18.5,31,0.00,,,0.00,VWS V14.01,2013-04-03 20:46:00,
2013-04-03 16:47:00,45.0,15.4,30.08,South,173,5.5,14.3,30,0.00,,,0.00,VWS V14.01,2013-04-03 20:47:00,
2013-04-03 16:48:00,44.8,15.2,30.08,WNW,301,5.7,11.0,30,0.00,,,0.00,VWS V14.01,2013-04-03 20:48:00,
2013-04-03 16:49:00,44.8,15.4,30.08,NNE,32,7.4,10.3,30,0.00,,,0.00,VWS V14.01,2013-04-03 20:49:00,
2013-04-03 16:50:00,44.8,15.2,30.08,WNW,301,5.7,11.0,30,0.00,,,0.00,VWS V14.01,2013-04-03 20:50:00,
2013-04-03 16:51:00,44.8,15.3,30.08,NW,304,5.8,9.0,30,0.00,,,0.00,VWS V14.01,2013-04-03 20:51:00,
2013-04-03 16:52:00,44.7,15.2,30.09,NW,321,11.4,11.4,30,0.00,,,0.00,VWS V14.01,2013-04-03 20:52:00,
2013-04-03 16:53:00,43.6,14.1,30.08,NNW,336,16.6,20.9,30,0.00,,,0.00,VWS V14.01,2013-04-03 20:53:00,
2013-04-03 16:54:00,44.3,14.8,30.08,WSW,255,7.3,12.2,30,0.00,,,0.00,VWS V14.01,2013-04-03 20:54:00,
2013-04-03 16:55:00,43.6,14.1,30.08,NNW,336,16.6,20.9,30,0.00,,,0.00,VWS V14.01,2013-04-03 20:55:00,
2013-04-03 16:56:00,43.2,14.0,30.08,North,4,8.4,18.4,30,0.00,,,0.00,VWS V14.01,2013-04-03 20:56:00,
2013-04-03 16:57:00,43.3,15.6,30.09,NW,305,11.4,13.2,32,0.00,,,0.00,VWS V14.01,2013-04-03 20:57:00,
2013-04-03 16:58:00,43.3,14.2,30.09,NNW,342,3.5,12.0,30,0.00,,,0.00,VWS V14.01,2013-04-03 20:58:00,
2013-04-03 16:59:00,42.9,14.4,30.09,WNW,287,0.0,12.7,31,0.00,,,0.00,VWS V14.01,2013-04-03 20:59:00,
2013-04-03 17:00:00,42.9,13.8,30.09,NW,325,12.7,16.7,30,0.00,,,0.00,VWS V14.01,2013-04-03 21:00:00,
2013-04-03 17:01:00,42.9,14.4,30.09,WNW,287,0.0,12.7,31,0.00,,,0.00,VWS V14.01,2013-04-03 21:01:00,
2013-04-03 17:02:00,43.2,15.3,30.09,WNW,287,0.0,0.0,32,0.00,,,0.00,VWS V14.01,2013-04-03 21:02:00,
2013-04-03 17:03:00,43.4,14.5,30.09,NNW,329,6.9,9.5,31,0.00,,,0.00,VWS V14.01,2013-04-03 21:03:00,
2013-04-03 17:04:00,43.4,14.4,30.09,North,10,10.9,15.7,30,0.00,,,0.00,VWS V14.01,2013-04-03 21:04:00,
2013-04-03 17:05:00,43.4,14.7,30.09,West,280,8.5,10.3,31,0.00,,,0.00,VWS V14.01,2013-04-03 21:05:00,
2013-04-03 17:06:00,43.4,14.4,30.09,North,10,10.9,15.7,30,0.00,,,0.00,VWS V14.01,2013-04-03 21:06:00,
2013-04-03 17:07:00,43.3,14.5,30.09,NW,325,5.5,11.5,31,0.00,,,0.00,VWS V14.01,2013-04-03 21:07:00,
2013-04-03 17:08:00,43.4,15.2,30.10,NNW,336,7.1,9.6,32,0.00,,,0.00,VWS V14.01,2013-04-03 21:08:00,
2013-04-03 17:09:00,43.6,13.6,30.10,WNW,290,6.6,12.6,29,0.00,,,0.00,VWS V14.01,2013-04-03 21:09:00,
2013-04-03 17:10:00,43.8,15.4,30.10,NW,326,8.0,10.9,31,0.00,,,0.00,VWS V14.01,2013-04-03 21:10:00,
2013-04-03 17:11:00,43.6,13.6,30.10,WNW,290,6.6,12.6,29,0.00,,,0.00,VWS V14.01,2013-04-03 21:11:00,
2013-04-03 17:12:00,43.7,14.5,30.10,WNW,290,5.3,10.8,30,0.00,,,0.00,VWS V14.01,2013-04-03 21:12:00,
2013-04-03 17:13:00,43.8,14.1,30.10,NW,311,0.0,8.8,30,0.00,,,0.00,VWS V14.01,2013-04-03 21:13:00,
2013-04-03 17:14:00,43.7,14.5,30.10,North,359,0.0,7.6,30,0.00,,,0.00,VWS V14.01,2013-04-03 21:14:00,
2013-04-03 17:15:00,43.7,14.5,30.10,NNW,329,5.7,8.7,30,0.00,,,0.00,VWS V14.01,2013-04-03 21:15:00,
2013-04-03 17:16:00,43.7,14.5,30.10,North,359,0.0,7.6,30,0.00,,,0.00,VWS V14.01,2013-04-03 21:16:00,
2013-04-03 17:17:00,43.6,13.9,30.10,NNE,15,0.0,7.5,30,0.00,,,0.00,VWS V14.01,2013-04-03 21:17:00,
2013-04-03 17:18:00,43.7,14.8,30.10,WNW,295,0.0,6.2,31,0.00,,,0.00,VWS V14.01,2013-04-03 21:18:00,
2013-04-03 17:19:00,43.4,13.4,30.10,WNW,300,4.5,12.7,29,0.00,,,0.00,VWS V14.01,2013-04-03 21:19:00,
2013-04-03 17:20:00,43.7,14.5,30.10,North,7,0.0,0.0,30,0.00,,,0.00,VWS V14.01,2013-04-03 21:20:00,
2013-04-03 17:21:00,43.4,13.4,30.10,WNW,300,4.5,12.7,29,0.00,,,0.00,VWS V14.01,2013-04-03 21:21:00,
2013-04-03 17:22:00,43.3,13.4,30.10,NE,41,6.6,10.8,29,0.00,,,0.00,VWS V14.01,2013-04-03 21:22:00,
2013-04-03 17:23:00,43.1,13.6,30.10,NNW,338,0.0,9.3,30,0.00,,,0.00,VWS V14.01,2013-04-03 21:23:00,
2013-04-03 17:24:00,43.5,14.4,30.10,West,278,0.0,3.5,30,0.00,,,0.00,VWS V14.01,2013-04-03 21:24:00,
2013-04-03 17:25:00,43.3,14.4,30.10,West,278,0.0,11.7,31,0.00,,,0.00,VWS V14.01,2013-04-03 21:25:00,
2013-04-03 17:26:00,43.5,14.4,30.10,West,278,0.0,3.5,30,0.00,,,0.00,VWS V14.01,2013-04-03 21:26:00,
2013-04-03 17:27:00,43.7,14.7,30.10,North,349,5.8,6.2,30,0.00,,,0.00,VWS V14.01,2013-04-03 21:27:00,
2013-04-03 17:28:00,43.8,14.0,30.10,WNW,297,6.3,13.1,30,0.00,,,0.00,VWS V14.01,2013-04-03 21:28:00,
2013-04-03 17:29:00,43.5,13.3,30.10,WSW,253,4.3,8.5,29,0.00,,,0.00,VWS V14.01,2013-04-03 21:29:00,
2013-04-03 17:30:00,43.5,13.7,30.10,West,270,5.4,16.8,29,0.00,,,0.00,VWS V14.01,2013-04-03 21:30:00,
2013-04-03 17:31:00,43.5,13.5,30.10,WNW,300,8.3,14.4,29,0.00,,,0.00,VWS V14.01,2013-04-03 21:31:00,
2013-04-03 17:32:00,43.6,13.8,30.10,NNW,345,0.0,8.5,29,0.00,,,0.00,VWS V14.01,2013-04-03 21:32:00,
2013-04-03 17:33:00,43.6,13.4,30.10,NW,305,5.9,9.1,29,0.00,,,0.00,VWS V14.01,2013-04-03 21:33:00,
2013-04-03 17:34:00,43.3,13.5,30.10,WSW,238,2.7,8.1,29,0.00,,,0.00,VWS V14.01,2013-04-03 21:34:00,
2013-04-03 17:35:00,43.4,13.4,30.10,North,7,11.1,15.8,29,0.00,,,0.00,VWS V14.01,2013-04-03 21:35:00,
2013-04-03 17:36:00,43.3,13.3,30.10,West,266,0.0,13.7,29,0.00,,,0.00,VWS V14.01,2013-04-03 21:36:00,
2013-04-03 17:37:00,43.3,13.7,30.10,WSW,238,3.2,8.1,30,0.00,,,0.00,VWS V14.01,2013-04-03 21:37:00,
2013-04-03 17:38:00,43.4,13.9,30.10,SW,224,0.0,14.8,30,0.00,,,0.00,VWS V14.01,2013-04-03 21:38:00,
2013-04-03 17:39:00,43.7,13.5,30.10,NNW,330,0.0,0.0,29,0.00,,,0.00,VWS V14.01,2013-04-03 21:39:00,
2013-04-03 17:40:00,43.5,14.3,30.10,North,1,4.5,9.1,30,0.00,,,0.00,VWS V14.01,2013-04-03 21:40:00,
2013-04-03 17:41:00,43.6,14.1,30.10,NNW,330,0.0,4.5,30,0.00,,,0.00,VWS V14.01,2013-04-03 21:41:00,
2013-04-03 17:42:00,43.7,13.7,30.10,West,262,6.0,6.1,29,0.00,,,0.00,VWS V14.01,2013-04-03 21:42:00,
2013-04-03 17:43:00,43.6,12.9,30.11,WNW,300,6.3,12.1,28,0.00,,,0.00,VWS V14.01,2013-04-03 21:43:00,
2013-04-03 17:44:00,43.2,12.6,30.11,NW,316,7.8,17.2,28,0.00,,,0.00,VWS V14.01,2013-04-03 21:44:00,
2013-04-03 17:45:00,42.7,12.8,30.11,NW,315,6.4,12.7,29,0.00,,,0.00,VWS V14.01,2013-04-03 21:45:00,
2013-04-03 17:46:00,43.0,13.8,30.10,NNW,342,7.8,10.6,30,0.00,,,0.00,VWS V14.01,2013-04-03 21:46:00,
2013-04-03 17:47:00,42.7,12.8,30.11,NW,315,6.4,12.7,29,0.00,,,0.00,VWS V14.01,2013-04-03 21:47:00,
2013-04-03 17:48:00,42.7,13.4,30.11,West,281,5.2,6.4,30,0.00,,,0.00,VWS V14.01,2013-04-03 21:48:00,
2013-04-03 17:49:00,42.8,13.5,30.11,North,4,5.2,8.3,30,0.00,,,0.00,VWS V14.01,2013-04-03 21:49:00,
2013-04-03 17:50:00,42.6,13.2,30.11,NNE,24,9.7,11.2,30,0.00,,,0.00,VWS V14.01,2013-04-03 21:50:00,
2013-04-03 17:51:00,42.7,13.4,30.11,West,274,0.0,9.5,30,0.00,,,0.00,VWS V14.01,2013-04-03 21:51:00,
2013-04-03 17:52:00,42.6,13.2,30.11,NNE,24,9.7,11.2,30,0.00,,,0.00,VWS V14.01,2013-04-03 21:52:00,
2013-04-03 17:53:00,42.2,12.6,30.11,NNW,345,16.0,20.6,29,0.00,,,0.00,VWS V14.01,2013-04-03 21:53:00,
2013-04-03 17:54:00,42.0,13.0,30.11,SW,236,0.0,18.7,30,0.00,,,0.00,VWS V14.01,2013-04-03 21:54:00,
2013-04-03 17:55:00,41.9,13.2,30.12,North,3,4.3,14.2,31,0.00,,,0.00,VWS V14.01,2013-04-03 21:55:00,
2013-04-03 17:56:00,41.9,13.5,30.12,WNW,300,0.0,10.1,31,0.00,,,0.00,VWS V14.01,2013-04-03 21:56:00,
2013-04-03 17:57:00,41.9,13.2,30.12,North,3,4.3,14.2,31,0.00,,,0.00,VWS V14.01,2013-04-03 21:57:00,
2013-04-03 17:58:00,41.9,13.4,30.12,NNW,328,9.3,9.3,31,0.00,,,0.00,VWS V14.01,2013-04-03 21:58:00,
2013-04-03 17:59:00,41.9,13.1,30.12,NW,307,11.6,11.6,30,0.00,,,0.00,VWS V14.01,2013-04-03 21:59:00,
2013-04-03 18:00:00,42.1,13.5,30.12,NNW,332,0.0,6.2,31,0.00,,,0.00,VWS V14.01,2013-04-03 22:00:00,
2013-04-03 18:01:00,41.9,13.3,30.12,North,359,5.0,11.1,31,0.00,,,0.00,VWS V14.01,2013-04-03 22:01:00,
2013-04-03 18:02:00,42.1,13.5,30.12,NNW,332,0.0,6.2,31,0.00,,,0.00,VWS V14.01,2013-04-03 22:02:00,
2013-04-03 18:03:00,42.2,14.1,30.12,North,3,7.1,12.4,32,0.00,,,0.00,VWS V14.01,2013-04-03 22:03:00,
2013-04-03 18:04:00,42.3,13.8,30.12,North,359,8.7,11.6,31,0.00,,,0.00,VWS V14.01,2013-04-03 22:04:00,
2013-04-03 18:05:00,42.3,13.8,30.12,NW,319,0.0,7.3,31,0.00,,,0.00,VWS V14.01,2013-04-03 22:05:00,
2013-04-03 18:06:00,42.3,13.4,30.12,West,260,5.2,12.6,30,0.00,,,0.00,VWS V14.01,2013-04-03 22:06:00,
2013-04-03 18:07:00,42.3,13.8,30.12,NW,319,0.0,7.3,31,0.00,,,0.00,VWS V14.01,2013-04-03 22:07:00,
2013-04-03 18:08:00,42.3,13.5,30.12,West,259,0.0,10.5,30,0.00,,,0.00,VWS V14.01,2013-04-03 22:08:00,
2013-04-03 18:09:00,42.4,13.4,30.12,NW,315,11.6,16.2,30,0.00,,,0.00,VWS V14.01,2013-04-03 22:09:00,
2013-04-03 18:10:00,42.1,13.4,30.12,NW,319,6.0,19.1,31,0.00,,,0.00,VWS V14.01,2013-04-03 22:10:00,
2013-04-03 18:11:00,42.0,13.4,30.12,West,274,8.0,10.4,31,0.00,,,0.00,VWS V14.01,2013-04-03 22:11:00,
2013-04-03 18:12:00,42.1,13.4,30.12,NW,319,6.0,19.1,31,0.00,,,0.00,VWS V14.01,2013-04-03 22:12:00,
2013-04-03 18:13:00,42.0,13.5,30.12,NNW,328,3.4,11.4,31,0.00,,,0.00,VWS V14.01,2013-04-03 22:13:00,
2013-04-03 18:14:00,42.0,13.6,30.12,West,274,9.4,13.2,31,0.00,,,0.00,VWS V14.01,2013-04-03 22:14:00,
2013-04-03 18:15:00,42.2,14.0,30.13,NW,318,4.5,10.8,31,0.00,,,0.00,VWS V14.01,2013-04-03 22:15:00,
2013-04-03 18:16:00,42.1,14.1,30.12,NW,314,2.1,9.7,32,0.00,,,0.00,VWS V14.01,2013-04-03 22:16:00,
2013-04-03 18:17:00,42.2,14.0,30.12,NW,318,4.5,10.8,31,0.00,,,0.00,VWS V14.01,2013-04-03 22:17:00,
2013-04-03 18:18:00,42.2,13.7,30.12,WNW,297,0.0,6.3,31,0.00,,,0.00,VWS V14.01,2013-04-03 22:18:00,
2013-04-03 18:19:00,42.3,14.0,30.12,NNW,332,6.5,11.7,31,0.00,,,0.00,VWS V14.01,2013-04-03 22:19:00,
2013-04-03 18:20:00,42.1,13.7,30.13,NW,314,7.3,9.4,31,0.00,,,0.00,VWS V14.01,2013-04-03 22:20:00,
2013-04-03 18:21:00,42.2,14.1,30.13,WSW,250,0.0,13.5,32,0.00,,,0.00,VWS V14.01,2013-04-03 22:21:00,
2013-04-03 18:22:00,42.1,13.8,30.13,NW,314,0.0,0.0,31,0.00,,,0.00,VWS V14.01,2013-04-03 22:22:00,
2013-04-03 18:23:00,42.2,14.3,30.13,WSW,250,0.0,13.5,32,0.00,,,0.00,VWS V14.01,2013-04-03 22:23:00,
2013-04-03 18:24:00,42.3,14.3,30.13,North,350,7.6,12.6,32,0.00,,,0.00,VWS V14.01,2013-04-03 22:24:00,
2013-04-03 18:25:00,42.1,13.7,30.13,North,8,6.7,13.6,31,0.00,,,0.00,VWS V14.01,2013-04-03 22:25:00,
2013-04-03 18:26:00,42.0,13.9,30.13,SW,219,0.0,0.0,32,0.00,,,0.00,VWS V14.01,2013-04-03 22:26:00,
2013-04-03 18:27:00,42.0,13.3,30.13,SW,219,0.0,10.5,31,0.00,,,0.00,VWS V14.01,2013-04-03 22:27:00,
2013-04-03 18:28:00,42.0,13.9,30.13,SW,219,0.0,0.0,32,0.00,,,0.00,VWS V14.01,2013-04-03 22:28:00,
2013-04-03 18:29:00,42.0,13.9,30.14,NNW,328,6.5,6.7,32,0.00,,,0.00,VWS V14.01,2013-04-03 22:29:00,
2013-04-03 18:30:00,42.1,14.0,30.14,NW,319,0.0,7.8,32,0.00,,,0.00,VWS V14.01,2013-04-03 22:30:00,
2013-04-03 18:31:00,41.3,13.6,30.14,NW,307,0.0,8.5,32,0.00,,,0.00,VWS V14.01,2013-04-03 22:31:00,
2013-04-03 18:32:00,41.3,12.7,30.14,North,359,8.1,18.4,31,0.00,,,0.00,VWS V14.01,2013-04-03 22:32:00,
2013-04-03 18:33:00,41.3,13.6,30.14,NW,307,0.0,8.5,32,0.00,,,0.00,VWS V14.01,2013-04-03 22:33:00,
2013-04-03 18:34:00,41.2,13.2,30.14,North,3,0.0,21.7,32,0.00,,,0.00,VWS V14.01,2013-04-03 22:34:00,
2013-04-03 18:35:00,41.1,13.2,30.14,NW,311,7.3,17.6,32,0.00,,,0.00,VWS V14.01,2013-04-03 22:35:00,
2013-04-03 18:36:00,40.9,13.7,30.14,North,11,5.8,7.6,32,0.00,,,0.00,VWS V14.01,2013-04-03 22:36:00,
2013-04-03 18:37:00,40.9,13.3,30.14,NW,308,0.0,15.8,32,0.00,,,0.00,VWS V14.01,2013-04-03 22:37:00,
2013-04-03 18:38:00,40.9,13.7,30.14,North,11,5.8,7.6,32,0.00,,,0.00,VWS V14.01,2013-04-03 22:38:00,
2013-04-03 18:39:00,40.8,13.4,30.14,NW,316,0.0,7.1,32,0.00,,,0.00,VWS V14.01,2013-04-03 22:39:00,
2013-04-03 18:40:00,40.7,13.3,30.15,NW,312,0.0,7.6,32,0.00,,,0.00,VWS V14.01,2013-04-03 22:40:00,
2013-04-03 18:41:00,40.3,13.1,30.15,NNW,347,5.1,11.8,32,0.00,,,0.00,VWS V14.01,2013-04-03 22:41:00,
2013-04-03 18:42:00,40.4,13.1,30.15,North,359,0.0,8.5,32,0.00,,,0.00,VWS V14.01,2013-04-03 22:42:00,
2013-04-03 18:43:00,40.3,13.1,30.15,NNW,347,5.1,11.8,32,0.00,,,0.00,VWS V14.01,2013-04-03 22:43:00,
2013-04-03 18:44:00,40.2,12.9,30.15,WNW,292,5.4,14.4,32,0.00,,,0.00,VWS V14.01,2013-04-03 22:44:00,
2013-04-03 18:45:00,40.2,13.2,30.15,NNE,21,6.7,12.9,33,0.00,,,0.00,VWS V14.01,2013-04-03 22:45:00,
2013-04-03 18:46:00,40.1,13.2,30.15,NNW,330,8.0,13.2,33,0.00,,,0.00,VWS V14.01,2013-04-03 22:46:00,
2013-04-03 18:47:00,40.1,13.1,30.15,NW,311,1.5,10.8,33,0.00,,,0.00,VWS V14.01,2013-04-03 22:47:00,
2013-04-03 18:48:00,40.1,13.2,30.15,NNW,330,8.0,13.2,33,0.00,,,0.00,VWS V14.01,2013-04-03 22:48:00,
2013-04-03 18:49:00,40.1,13.3,30.15,NW,319,7.5,11.1,33,0.00,,,0.00,VWS V14.01,2013-04-03 22:49:00,
2013-04-03 18:50:00,40.0,13.3,30.15,WNW,302,8.1,13.8,33,0.00,,,0.00,VWS V14.01,2013-04-03 22:50:00,
2013-04-03 18:51:00,39.6,13.3,30.15,WNW,297,0.0,11.0,34,0.00,,,0.00,VWS V14.01,2013-04-03 22:51:00,
2013-04-03 18:52:00,39.6,13.4,30.15,West,262,5.0,13.2,34,0.00,,,0.00,VWS V14.01,2013-04-03 22:52:00,
2013-04-03 18:53:00,39.6,13.3,30.15,WNW,297,0.0,11.0,34,0.00,,,0.00,VWS V14.01,2013-04-03 22:53:00,
2013-04-03 18:54:00,39.4,13.6,30.15,NNW,330,5.7,20.1,34,0.00,,,0.00,VWS V14.01,2013-04-03 22:54:00,
2013-04-03 18:55:00,39.4,13.8,30.15,West,269,0.0,9.7,35,0.00,,,0.00,VWS V14.01,2013-04-03 22:55:00,
2013-04-03 18:56:00,39.2,13.5,30.15,WNW,287,9.1,15.9,34,0.00,,,0.00,VWS V14.01,2013-04-03 22:56:00,
2013-04-03 18:57:00,39.3,13.7,30.15,NW,325,4.8,9.3,35,0.00,,,0.00,VWS V14.01,2013-04-03 22:57:00,
2013-04-03 18:58:00,39.2,13.5,30.16,WNW,287,9.1,15.9,34,0.00,,,0.00,VWS V14.01,2013-04-03 22:58:00,
2013-04-03 18:59:00,39.0,13.4,30.15,NW,305,13.7,15.5,34,0.00,,,0.00,VWS V14.01,2013-04-03 22:59:00,
2013-04-03 19:00:00,38.9,13.3,30.16,NW,308,5.2,13.7,34,0.00,,,0.00,VWS V14.01,2013-04-03 23:00:00,
2013-04-03 19:01:00,39.0,13.7,30.16,NW,322,9.3,10.6,35,0.00,,,0.00,VWS V14.01,2013-04-03 23:01:00,
2013-04-03 19:02:00,39.0,13.7,30.16,WSW,252,0.0,6.1,35,0.00,,,0.00,VWS V14.01,2013-04-03 23:02:00,
2013-04-03 19:03:00,39.0,13.7,30.16,NW,322,9.3,10.6,35,0.00,,,0.00,VWS V14.01,2013-04-03 23:03:00,
2013-04-03 19:04:00,38.8,13.4,30.16,WNW,287,0.0,12.3,35,0.00,,,0.00,VWS V14.01,2013-04-03 23:04:00,
2013-04-03 19:05:00,38.8,14.0,30.16,NW,318,6.4,9.9,36,0.00,,,0.00,VWS V14.01,2013-04-03 23:05:00,
2013-04-03 19:06:00,38.4,13.9,30.16,NW,316,7.8,9.6,36,0.00,,,0.00,VWS V14.01,2013-04-03 23:06:00,
2013-04-03 19:07:00,38.4,13.4,30.16,North,4,6.0,12.1,35,0.00,,,0.00,VWS V14.01,2013-04-03 23:07:00,
2013-04-03 19:08:00,38.4,13.9,30.16,NW,316,7.8,9.6,36,0.00,,,0.00,VWS V14.01,2013-04-03 23:08:00,
2013-04-03 19:09:00,38.2,13.6,30.16,NE,49,1.9,13.9,36,0.00,,,0.00,VWS V14.01,2013-04-03 23:09:00,
2013-04-03 19:10:00,38.0,13.6,30.16,NNW,332,14.3,17.9,36,0.00,,,0.00,VWS V14.01,2013-04-03 23:10:00,
2013-04-03 19:11:00,37.8,13.8,30.16,West,281,7.8,13.0,37,0.00,,,0.00,VWS V14.01,2013-04-03 23:11:00,
2013-04-03 19:12:00,37.8,13.6,30.16,West,266,13.0,13.0,36,0.00,,,0.00,VWS V14.01,2013-04-03 23:12:00,
2013-04-03 19:13:00,37.8,13.8,30.16,West,281,7.8,13.0,37,0.00,,,0.00,VWS V14.01,2013-04-03 23:13:00,
2013-04-03 19:14:00,37.8,13.8,30.16,NW,315,8.0,10.3,37,0.00,,,0.00,VWS V14.01,2013-04-03 23:14:00,
2013-04-03 19:15:00,37.8,13.8,30.16,WNW,290,0.0,9.9,37,0.00,,,0.00,VWS V14.01,2013-04-03 23:15:00,
2013-04-03 19:16:00,37.3,13.9,30.16,North,359,4.5,24.7,38,0.00,,,0.00,VWS V14.01,2013-04-03 23:16:00,
2013-04-03 19:17:00,37.7,14.1,30.16,West,277,7.0,11.5,38,0.00,,,0.00,VWS V14.01,2013-04-03 23:17:00,
2013-04-03 19:18:00,37.3,13.9,30.16,North,359,4.5,24.7,38,0.00,,,0.00,VWS V14.01,2013-04-03 23:18:00,
2013-04-03 19:19:00,37.3,14.0,30.16,NNE,25,6.0,16.9,38,0.00,,,0.00,VWS V14.01,2013-04-03 23:19:00,
2013-04-03 19:20:00,37.3,14.1,30.16,NW,307,12.1,12.7,38,0.00,,,0.00,VWS V14.01,2013-04-03 23:20:00,
2013-04-03 19:21:00,37.2,14.1,30.17,NNE,22,4.6,15.1,38,0.00,,,0.00,VWS V14.01,2013-04-03 23:21:00,
2013-04-03 19:22:00,37.2,14.0,30.17,North,356,8.5,16.0,38,0.00,,,0.00,VWS V14.01,2013-04-03 23:22:00,
2013-04-03 19:23:00,37.2,14.1,30.17,NNE,22,4.6,15.1,38,0.00,,,0.00,VWS V14.01,2013-04-03 23:23:00,
2013-04-03 19:24:00,37.2,14.1,30.17,WNW,290,5.5,6.3,38,0.00,,,0.00,VWS V14.01,2013-04-03 23:24:00,
2013-04-03 19:25:00,37.2,14.2,30.17,WNW,290,0.0,5.5,38,0.00,,,0.00,VWS V14.01,2013-04-03 23:25:00,
2013-04-03 19:26:00,37.0,14.2,30.17,North,356,8.8,12.9,39,0.00,,,0.00,VWS V14.01,2013-04-03 23:26:00,
2013-04-03 19:27:00,37.2,14.5,30.17,West,280,3.4,9.7,39,0.00,,,0.00,VWS V14.01,2013-04-03 23:27:00,
2013-04-03 19:28:00,37.0,14.2,30.17,North,356,8.8,12.9,39,0.00,,,0.00,VWS V14.01,2013-04-03 23:28:00,
2013-04-03 19:29:00,36.9,14.3,30.17,NNW,328,6.3,12.8,39,0.00,,,0.00,VWS V14.01,2013-04-03 23:29:00,
2013-04-03 19:30:00,36.9,14.6,30.17,NNW,330,9.9,17.0,40,0.00,,,0.00,VWS V14.01,2013-04-03 23:30:00,
2013-04-03 19:31:00,36.8,14.5,30.18,North,7,10.4,14.6,40,0.00,,,0.00,VWS V14.01,2013-04-03 23:31:00,
2013-04-03 19:32:00,36.9,14.5,30.17,West,271,3.5,10.6,39,0.00,,,0.00,VWS V14.01,2013-04-03 23:32:00,
2013-04-03 19:33:00,36.8,14.5,30.17,North,7,10.4,14.6,40,0.00,,,0.00,VWS V14.01,2013-04-03 23:33:00,
2013-04-03 19:34:00,36.8,14.6,30.17,NNW,346,8.0,13.9,40,0.00,,,0.00,VWS V14.01,2013-04-03 23:34:00,
2013-04-03 19:35:00,36.8,14.6,30.17,WNW,298,9.9,14.4,40,0.00,,,0.00,VWS V14.01,2013-04-03 23:35:00,
2013-04-03 19:36:00,36.6,14.6,30.17,WSW,240,5.8,6.6,40,0.00,,,0.00,VWS V14.01,2013-04-03 23:36:00,
2013-04-03 19:37:00,36.7,14.7,30.17,NW,308,4.7,10.7,40,0.00,,,0.00,VWS V14.01,2013-04-03 23:37:00,
2013-04-03 19:38:00,36.6,14.6,30.17,North,352,6.6,13.5,40,0.00,,,0.00,VWS V14.01,2013-04-03 23:38:00,
2013-04-03 19:39:00,36.6,14.6,30.17,WNW,302,6.3,16.0,40,0.00,,,0.00,VWS V14.01,2013-04-03 23:39:00,
2013-04-03 19:40:00,36.6,14.8,30.17,NNW,328,7.8,10.3,40,0.00,,,0.00,VWS V14.01,2013-04-03 23:40:00,
2013-04-03 19:41:00,36.6,15.1,30.17,NW,322,7.8,10.6,41,0.00,,,0.00,VWS V14.01,2013-04-03 23:41:00,
2013-04-03 19:42:00,36.5,14.8,30.18,NW,304,0.0,9.1,41,0.00,,,0.00,VWS V14.01,2013-04-03 23:42:00,
2013-04-03 19:43:00,36.6,14.9,30.17,West,281,0.0,10.6,41,0.00,,,0.00,VWS V14.01,2013-04-03 23:43:00,
2013-04-03 19:44:00,36.5,14.8,30.17,NW,304,0.0,9.1,41,0.00,,,0.00,VWS V14.01,2013-04-03 23:44:00,
2013-04-03 19:45:00,36.5,14.9,30.18,NNW,332,11.1,12.2,41,0.00,,,0.00,VWS V14.01,2013-04-03 23:45:00,
2013-04-03 19:46:00,36.5,14.7,30.18,North,359,0.0,11.5,40,0.00,,,0.00,VWS V14.01,2013-04-03 23:46:00,
2013-04-03 19:47:00,36.4,14.7,30.18,NW,323,6.5,9.6,41,0.00,,,0.00,VWS V14.01,2013-04-03 23:47:00,
2013-04-03 19:48:00,36.5,14.8,30.18,North,359,4.7,10.3,41,0.00,,,0.00,VWS V14.01,2013-04-03 23:48:00,
2013-04-03 19:49:00,36.4,14.7,30.18,NW,323,6.5,9.6,41,0.00,,,0.00,VWS V14.01,2013-04-03 23:49:00,
2013-04-03 19:50:00,36.4,14.7,30.18,North,359,9.2,9.3,41,0.00,,,0.00,VWS V14.01,2013-04-03 23:50:00,
2013-04-03 19:51:00,36.4,14.7,30.18,West,263,3.5,9.6,40,0.00,,,0.00,VWS V14.01,2013-04-03 23:51:00,
2013-04-03 19:52:00,36.2,14.7,30.18,NW,314,5.3,7.8,41,0.00,,,0.00,VWS V14.01,2013-04-03 23:52:00,
2013-04-03 19:53:00,36.2,14.7,30.18,West,267,0.0,11.2,41,0.00,,,0.00,VWS V14.01,2013-04-03 23:53:00,
2013-04-03 19:54:00,36.2,14.7,30.18,NW,314,5.3,7.8,41,0.00,,,0.00,VWS V14.01,2013-04-03 23:54:00,
2013-04-03 19:55:00,36.3,14.8,30.18,NW,323,0.0,6.0,41,0.00,,,0.00,VWS V14.01,2013-04-03 23:55:00,
2013-04-03 19:56:00,36.2,14.9,30.18,NW,323,0.0,0.0,41,0.00,,,0.00,VWS V14.01,2013-04-03 23:56:00,
2013-04-03 19:57:00,36.2,14.7,30.18,NW,311,0.0,7.5,41,0.00,,,0.00,VWS V14.01,2013-04-03 23:57:00,
2013-04-03 19:58:00,36.1,14.6,30.18,NW,311,7.5,10.8,41,0.00,,,0.00,VWS V14.01,2013-04-03 23:58:00,
2013-04-03 19:59:00,36.2,14.7,30.18,NW,311,0.0,7.5,41,0.00,,,0.00,VWS V14.01,2013-04-03 23:59:00,
2013-04-03 20:00:00,36.2,15.3,30.18,NW,312,0.0,8.6,42,0.00,,,0.00,VWS V14.01,2013-04-04 00:00:00,
2013-04-03 20:01:00,36.3,15.1,30.18,NW,312,0.0,0.0,41,0.00,,,0.00,VWS V14.01,2013-04-04 00:01:00,
2013-04-03 20:02:00,36.1,14.9,30.18,WSW,253,0.0,5.5,41,0.00,,,0.00,VWS V14.01,2013-04-04 00:02:00,
2013-04-03 20:03:00,36.1,14.9,30.18,NW,316,5.5,8.4,41,0.00,,,0.00,VWS V14.01,2013-04-04 00:03:00,
2013-04-03 20:04:00,36.1,14.9,30.18,WSW,253,0.0,5.5,41,0.00,,,0.00,VWS V14.01,2013-04-04 00:04:00,
2013-04-03 20:05:00,36.0,14.7,30.18,WNW,297,8.2,11.8,41,0.00,,,0.00,VWS V14.01,2013-04-04 00:05:00,
2013-04-03 20:06:00,36.0,14.9,30.18,North,3,5.3,13.3,42,0.00,,,0.00,VWS V14.01,2013-04-04 00:06:00,
2013-04-03 20:07:00,35.9,15.1,30.19,WNW,298,0.0,0.0,42,0.00,,,0.00,VWS V14.01,2013-04-04 00:07:00,
2013-04-03 20:08:00,35.9,15.0,30.19,WNW,298,0.0,10.6,42,0.00,,,0.00,VWS V14.01,2013-04-04 00:08:00,
2013-04-03 20:09:00,35.9,15.1,30.19,WNW,298,0.0,0.0,42,0.00,,,0.00,VWS V14.01,2013-04-04 00:09:00,
2013-04-03 20:10:00,36.0,15.1,30.19,West,264,4.5,12.1,42,0.00,,,0.00,VWS V14.01,2013-04-04 00:10:00,
2013-04-03 20:11:00,36.0,15.3,30.19,NW,311,0.0,5.0,42,0.00,,,0.00,VWS V14.01,2013-04-04 00:11:00,
2013-04-03 20:12:00,35.8,15.0,30.19,NNW,328,0.0,0.0,42,0.00,,,0.00,VWS V14.01,2013-04-04 00:12:00,
2013-04-03 20:13:00,35.8,14.9,30.19,NNW,328,0.0,14.0,42,0.00,,,0.00,VWS V14.01,2013-04-04 00:13:00,
2013-04-03 20:14:00,35.8,15.0,30.19,NNW,328,0.0,0.0,42,0.00,,,0.00,VWS V14.01,2013-04-04 00:14:00,
2013-04-03 20:15:00,35.8,15.0,30.19,NNW,328,0.0,0.0,42,0.00,,,0.00,VWS V14.01,2013-04-04 00:15:00,
2013-04-03 20:16:00,35.8,15.1,30.19,NNW,328,0.0,4.6,42,0.00,,,0.00,VWS V14.01,2013-04-04 00:16:00,
2013-04-03 20:17:00,35.6,14.9,30.19,WNW,285,0.0,9.3,42,0.00,,,0.00,VWS V14.01,2013-04-04 00:17:00,
2013-04-03 20:18:00,35.6,14.9,30.19,WNW,294,5.0,7.0,42,0.00,,,0.00,VWS V14.01,2013-04-04 00:18:00,
2013-04-03 20:19:00,35.6,14.9,30.19,WNW,285,0.0,9.3,42,0.00,,,0.00,VWS V14.01,2013-04-04 00:19:00,
2013-04-03 20:20:00,35.6,15.0,30.20,NNW,332,0.0,5.6,42,0.00,,,0.00,VWS V14.01,2013-04-04 00:20:00,
2013-04-03 20:21:00,35.6,15.1,30.20,NW,314,0.0,7.2,42,0.00,,,0.00,VWS V14.01,2013-04-04 00:21:00,
2013-04-03 20:22:00,35.6,15.4,30.20,West,274,4.5,14.1,43,0.00,,,0.00,VWS V14.01,2013-04-04 00:22:00,
2013-04-03 20:23:00,35.6,15.4,30.20,West,274,0.0,7.1,43,0.00,,,0.00,VWS V14.01,2013-04-04 00:23:00,
2013-04-03 20:24:00,35.6,15.4,30.20,West,274,4.5,14.1,43,0.00,,,0.00,VWS V14.01,2013-04-04 00:24:00,
2013-04-03 20:25:00,35.5,15.3,30.20,NNW,339,8.5,17.3,43,0.00,,,0.00,VWS V14.01,2013-04-04 00:25:00,
2013-04-03 20:26:00,35.4,15.2,30.20,North,359,5.3,12.3,43,0.00,,,0.00,VWS V14.01,2013-04-04 00:26:00,
2013-04-03 20:27:00,35.5,15.4,30.20,WNW,294,0.0,8.3,43,0.00,,,0.00,VWS V14.01,2013-04-04 00:27:00,
2013-04-03 20:28:00,35.5,15.4,30.20,NNW,336,7.8,8.7,43,0.00,,,0.00,VWS V14.01,2013-04-04 00:28:00,
2013-04-03 20:29:00,35.5,15.4,30.20,WNW,294,0.0,8.3,43,0.00,,,0.00,VWS V14.01,2013-04-04 00:29:00,
2013-04-03 20:30:00,35.5,15.6,30.20,WNW,294,0.0,0.0,44,0.00,,,0.00,VWS V14.01,2013-04-04 00:30:00,
2013-04-03 20:31:00,35.4,15.4,30.20,NW,309,5.3,6.8,43,0.00,,,0.00,VWS V14.01,2013-04-04 00:31:00,
2013-04-03 20:32:00,35.3,15.3,30.20,North,7,4.3,12.2,43,0.00,,,0.00,VWS V14.01,2013-04-04 00:32:00,
2013-04-03 20:33:00,35.3,15.3,30.20,West,273,4.3,10.8,43,0.00,,,0.00,VWS V14.01,2013-04-04 00:33:00,
2013-04-03 20:34:00,35.3,15.3,30.20,North,7,4.3,12.2,43,0.00,,,0.00,VWS V14.01,2013-04-04 00:34:00,
2013-04-03 20:35:00,35.3,15.2,30.20,WNW,295,7.0,10.3,43,0.00,,,0.00,VWS V14.01,2013-04-04 00:35:00,
2013-04-03 20:36:00,35.3,15.3,30.20,NW,305,3.4,10.7,43,0.00,,,0.00,VWS V14.01,2013-04-04 00:36:00,
2013-04-03 20:37:00,35.2,15.2,30.20,NNW,332,5.6,10.1,43,0.00,,,0.00,VWS V14.01,2013-04-04 00:37:00,
2013-04-03 20:38:00,35.3,15.1,30.20,WNW,287,5.7,12.9,43,0.00,,,0.00,VWS V14.01,2013-04-04 00:38:00,
2013-04-03 20:39:00,35.2,15.2,30.20,NNW,332,5.6,10.1,43,0.00,,,0.00,VWS V14.01,2013-04-04 00:39:00,
2013-04-03 20:40:00,35.2,15.4,30.20,NW,304,0.0,7.7,44,0.00,,,0.00,VWS V14.01,2013-04-04 00:40:00,
2013-04-03 20:41:00,35.1,15.4,30.20,WSW,248,10.6,10.6,44,0.00,,,0.00,VWS V14.01,2013-04-04 00:41:00,
2013-04-03 20:42:00,35.2,15.4,30.21,West,267,4.8,10.7,44,0.00,,,0.00,VWS V14.01,2013-04-04 00:42:00,
2013-04-03 20:43:00,35.1,15.2,30.21,NW,318,10.7,11.9,44,0.00,,,0.00,VWS V14.01,2013-04-04 00:43:00,
2013-04-03 20:44:00,35.2,15.4,30.21,West,267,4.8,10.7,44,0.00,,,0.00,VWS V14.01,2013-04-04 00:44:00,
2013-04-03 20:45:00,35.2,15.4,30.21,North,1,5.5,12.5,44,0.00,,,0.00,VWS V14.01,2013-04-04 00:45:00,
2013-04-03 20:46:00,35.1,15.4,30.21,NW,307,0.0,8.4,44,0.00,,,0.00,VWS V14.01,2013-04-04 00:46:00,
2013-04-03 20:47:00,35.1,15.3,30.20,WNW,290,0.0,6.4,44,0.00,,,0.00,VWS V14.01,2013-04-04 00:47:00,
2013-04-03 20:48:00,35.1,15.4,30.21,NNW,338,4.2,9.6,44,0.00,,,0.00,VWS V14.01,2013-04-04 00:48:00,
2013-04-03 20:49:00,35.1,15.3,30.20,WNW,290,0.0,6.4,44,0.00,,,0.00,VWS V14.01,2013-04-04 00:49:00,
2013-04-03 20:50:00,34.9,15.2,30.20,NNW,328,9.7,9.7,44,0.00,,,0.00,VWS V14.01,2013-04-04 00:50:00,
2013-04-03 20:51:00,35.0,15.4,30.21,NW,311,0.0,9.7,44,0.00,,,0.00,VWS V14.01,2013-04-04 00:51:00,
2013-04-03 20:52:00,35.0,15.3,30.21,North,349,6.2,6.2,44,0.00,,,0.00,VWS V14.01,2013-04-04 00:52:00,
2013-04-03 20:53:00,34.9,14.9,30.21,NW,307,3.4,9.7,44,0.00,,,0.00,VWS V14.01,2013-04-04 00:53:00,
2013-04-03 20:54:00,35.0,15.3,30.21,North,349,6.2,9.0,44,0.00,,,0.00,VWS V14.01,2013-04-04 00:54:00,
2013-04-03 20:55:00,35.0,15.1,30.21,NNW,342,8.9,8.9,44,0.00,,,0.00,VWS V14.01,2013-04-04 00:55:00,
2013-04-03 20:56:00,34.9,14.9,30.21,NW,308,7.6,12.7,44,0.00,,,0.00,VWS V14.01,2013-04-04 00:56:00,
2013-04-03 20:57:00,34.8,14.9,30.21,NW,325,6.6,15.7,44,0.00,,,0.00,VWS V14.01,2013-04-04 00:57:00,
2013-04-03 20:58:00,34.9,15.0,30.21,WNW,300,8.4,10.0,44,0.00,,,0.00,VWS V14.01,2013-04-04 00:58:00,
2013-04-03 20:59:00,34.8,14.9,30.21,NW,325,6.6,15.7,44,0.00,,,0.00,VWS V14.01,2013-04-04 00:59:00,
2013-04-03 21:00:00,34.9,15.0,30.21,West,280,0.0,8.0,44,0.00,,,0.00,VWS V14.01,2013-04-04 01:00:00,
2013-04-03 21:01:00,34.9,15.3,30.21,West,280,0.0,0.0,44,0.00,,,0.00,VWS V14.01,2013-04-04 01:01:00,
2013-04-03 21:02:00,34.7,15.2,30.21,West,280,0.0,0.0,44,0.00,,,0.00,VWS V14.01,2013-04-04 01:02:00,
2013-04-03 21:03:00,34.8,15.2,30.21,West,280,0.0,0.0,44,0.00,,,0.00,VWS V14.01,2013-04-04 01:03:00,
2013-04-03 21:04:00,34.7,15.2,30.21,West,280,0.0,0.0,44,0.00,,,0.00,VWS V14.01,2013-04-04 01:04:00,
2013-04-03 21:05:00,34.7,15.1,30.21,NW,321,0.0,7.2,44,0.00,,,0.00,VWS V14.01,2013-04-04 01:05:00,
2013-04-03 21:06:00,34.7,15.2,30.21,NNW,342,0.0,4.6,44,0.00,,,0.00,VWS V14.01,2013-04-04 01:06:00,
2013-04-03 21:07:00,34.7,15.5,30.22,NW,321,0.0,0.0,45,0.00,,,0.00,VWS V14.01,2013-04-04 01:07:00,
2013-04-03 21:08:00,34.7,15.3,30.22,NW,321,0.0,9.0,44,0.00,,,0.00,VWS V14.01,2013-04-04 01:08:00,
2013-04-03 21:09:00,34.7,15.5,30.22,NW,321,0.0,0.0,45,0.00,,,0.00,VWS V14.01,2013-04-04 01:09:00,
2013-04-03 21:10:00,34.6,15.3,30.21,NW,321,0.0,0.0,45,0.00,,,0.00,VWS V14.01,2013-04-04 01:10:00,
2013-04-03 21:11:00,34.6,15.4,30.22,West,273,7.8,7.8,45,0.00,,,0.00,VWS V14.01,2013-04-04 01:11:00,
2013-04-03 21:12:00,34.5,15.2,30.22,West,277,0.0,0.0,45,0.00,,,0.00,VWS V14.01,2013-04-04 01:12:00,
2013-04-03 21:13:00,34.6,15.3,30.22,West,277,0.0,13.0,45,0.00,,,0.00,VWS V14.01,2013-04-04 01:13:00,
2013-04-03 21:14:00,34.5,15.2,30.22,West,277,0.0,0.0,45,0.00,,,0.00,VWS V14.01,2013-04-04 01:14:00,
2013-04-03 21:15:00,34.6,15.3,30.22,WNW,295,0.0,3.0,45,0.00,,,0.00,VWS V14.01,2013-04-04 01:15:00,
2013-04-03 21:16:00,34.6,15.4,30.22,WNW,300,0.0,3.5,45,0.00,,,0.00,VWS V14.01,2013-04-04 01:16:00,
2013-04-03 21:17:00,34.4,15.5,30.22,NW,318,0.0,4.3,45,0.00,,,0.00,VWS V14.01,2013-04-04 01:17:00,
2013-04-03 21:18:00,34.6,15.5,30.22,NW,318,0.0,6.4,45,0.00,,,0.00,VWS V14.01,2013-04-04 01:18:00,
2013-04-03 21:19:00,34.4,15.5,30.22,NW,318,0.0,4.3,45,0.00,,,0.00,VWS V14.01,2013-04-04 01:19:00,
2013-04-03 21:20:00,34.4,15.4,30.22,WNW,287,3.4,9.4,45,0.00,,,0.00,VWS V14.01,2013-04-04 01:20:00,
2013-04-03 21:21:00,34.4,15.3,30.22,NNW,332,0.0,6.4,45,0.00,,,0.00,VWS V14.01,2013-04-04 01:21:00,
2013-04-03 21:22:00,34.4,15.7,30.22,West,281,3.4,8.7,46,0.00,,,0.00,VWS V14.01,2013-04-04 01:22:00,
2013-04-03 21:23:00,34.4,15.4,30.22,WNW,301,4.2,14.7,45,0.00,,,0.00,VWS V14.01,2013-04-04 01:23:00,
2013-04-03 21:24:00,34.4,15.7,30.22,West,281,3.4,8.7,46,0.00,,,0.00,VWS V14.01,2013-04-04 01:24:00,
2013-04-03 21:25:00,34.3,15.5,30.22,NW,311,4.9,9.8,46,0.00,,,0.00,VWS V14.01,2013-04-04 01:25:00,
2013-04-03 21:26:00,34.3,15.4,30.22,NNW,332,0.0,16.8,46,0.00,,,0.00,VWS V14.01,2013-04-04 01:26:00,
2013-04-03 21:27:00,34.3,15.6,30.22,NW,322,4.3,9.3,46,0.00,,,0.00,VWS V14.01,2013-04-04 01:27:00,
2013-04-03 21:28:00,34.3,15.5,30.22,West,267,9.0,16.3,46,0.00,,,0.00,VWS V14.01,2013-04-04 01:28:00,
2013-04-03 21:29:00,34.3,15.6,30.22,NW,322,4.3,9.3,46,0.00,,,0.00,VWS V14.01,2013-04-04 01:29:00,
2013-04-03 21:30:00,34.2,15.6,30.22,West,259,0.0,9.7,46,0.00,,,0.00,VWS V14.01,2013-04-04 01:30:00,
2013-04-03 21:32:00,34.2,15.5,30.23,WNW,294,6.4,11.0,46,0.00,,,0.00,VWS V14.01,2013-04-04 01:32:00,
2013-04-03 21:37:00,34.2,15.8,30.23,WNW,301,6.9,15.8,46,0.00,,,0.00,VWS V14.01,2013-04-04 01:37:00,
2013-04-03 21:38:00,34.1,15.5,30.22,West,277,4.7,4.7,46,0.00,,,0.00,VWS V14.01,2013-04-04 01:38:00,
2013-04-03 21:39:00,34.1,15.5,30.22,West,281,7.8,10.6,46,0.00,,,0.00,VWS V14.01,2013-04-04 01:39:00,
2013-04-03 21:40:00,34.1,15.5,30.22,West,277,4.7,9.7,46,0.00,,,0.00,VWS V14.01,2013-04-04 01:40:00,
2013-04-03 21:41:00,34.1,15.6,30.22,West,277,0.0,4.7,46,0.00,,,0.00,VWS V14.01,2013-04-04 01:41:00,
2013-04-03 21:42:00,34.1,15.6,30.22,NW,318,0.0,7.3,46,0.00,,,0.00,VWS V14.01,2013-04-04 01:42:00,
2013-04-03 21:43:00,34.0,15.5,30.23,WSW,253,0.0,8.2,46,0.00,,,0.00,VWS V14.01,2013-04-04 01:43:00,
2013-04-03 21:44:00,34.0,15.5,30.23,NNW,328,8.0,14.5,46,0.00,,,0.00,VWS V14.01,2013-04-04 01:44:00,
2013-04-03 21:45:00,34.0,15.5,30.23,WSW,253,0.0,8.2,46,0.00,,,0.00,VWS V14.01,2013-04-04 01:45:00,
2013-04-03 21:46:00,34.0,15.5,30.23,NW,304,0.0,7.5,46,0.00,,,0.00,VWS V14.01,2013-04-04 01:46:00,
2013-04-03 21:47:00,34.0,15.4,30.23,WSW,246,0.0,12.3,46,0.00,,,0.00,VWS V14.01,2013-04-04 01:47:00,
2013-04-03 21:48:00,34.0,15.7,30.23,West,281,11.4,13.4,47,0.00,,,0.00,VWS V14.01,2013-04-04 01:48:00,
2013-04-03 21:49:00,34.0,15.6,30.23,West,269,0.0,5.1,46,0.00,,,0.00,VWS V14.01,2013-04-04 01:49:00,
2013-04-03 21:50:00,34.0,15.7,30.23,West,281,11.4,13.4,47,0.00,,,0.00,VWS V14.01,2013-04-04 01:50:00,
2013-04-03 21:51:00,34.0,15.5,30.23,West,277,0.0,11.7,46,0.00,,,0.00,VWS V14.01,2013-04-04 01:51:00,
2013-04-03 21:52:00,34.0,15.9,30.23,WNW,288,0.0,4.5,47,0.00,,,0.00,VWS V14.01,2013-04-04 01:52:00,
2013-04-03 21:53:00,33.9,15.6,30.23,West,269,6.0,8.7,47,0.00,,,0.00,VWS V14.01,2013-04-04 01:53:00,
2013-04-03 21:54:00,33.9,15.8,30.23,WNW,297,6.1,6.1,47,0.00,,,0.00,VWS V14.01,2013-04-04 01:54:00,
2013-04-03 21:55:00,33.9,15.6,30.23,West,269,6.0,8.7,47,0.00,,,0.00,VWS V14.01,2013-04-04 01:55:00,
2013-04-03 21:56:00,33.9,15.6,30.23,NW,311,7.8,12.0,46,0.00,,,0.00,VWS V14.01,2013-04-04 01:56:00,
2013-04-03 21:57:00,33.9,15.6,30.23,NW,314,5.2,11.5,46,0.00,,,0.00,VWS V14.01,2013-04-04 01:57:00,
2013-04-03 21:58:00,33.8,15.6,30.23,NW,326,7.0,13.9,47,0.00,,,0.00,VWS V14.01,2013-04-04 01:58:00,
2013-04-03 21:59:00,33.9,15.7,30.23,WNW,285,0.0,6.5,47,0.00,,,0.00,VWS V14.01,2013-04-04 01:59:00,
2013-04-03 22:00:00,33.8,15.6,30.23,NW,326,7.0,13.9,47,0.00,,,0.00,VWS V14.01,2013-04-04 02:00:00,
2013-04-03 22:01:00,33.9,15.8,30.23,WNW,283,0.0,7.0,47,0.00,,,0.00,VWS V14.01,2013-04-04 02:01:00,
2013-04-03 22:02:00,33.8,15.5,30.23,NNW,329,8.3,11.0,46,0.00,,,0.00,VWS V14.01,2013-04-04 02:02:00,
2013-04-03 22:03:00,33.8,15.3,30.24,NW,309,0.0,11.2,46,0.00,,,0.00,VWS V14.01,2013-04-04 02:03:00,
2013-04-03 22:04:00,33.8,15.3,30.24,North,352,4.3,8.6,46,0.00,,,0.00,VWS V14.01,2013-04-04 02:04:00,
2013-04-03 22:05:00,33.8,15.3,30.24,NW,309,0.0,11.2,46,0.00,,,0.00,VWS V14.01,2013-04-04 02:05:00,
2013-04-03 22:06:00,33.8,15.4,30.24,WNW,288,11.7,11.7,46,0.00,,,0.00,VWS V14.01,2013-04-04 02:06:00,
2013-04-03 22:07:00,33.7,15.0,30.24,NW,326,8.1,19.1,46,0.00,,,0.00,VWS V14.01,2013-04-04 02:07:00,
2013-04-03 22:08:00,33.8,15.4,30.24,North,359,0.0,4.7,46,0.00,,,0.00,VWS V14.01,2013-04-04 02:08:00,
2013-04-03 22:09:00,33.7,15.3,30.24,North,359,4.7,6.3,46,0.00,,,0.00,VWS V14.01,2013-04-04 02:09:00,
2013-04-03 22:10:00,33.8,15.4,30.24,North,359,0.0,4.7,46,0.00,,,0.00,VWS V14.01,2013-04-04 02:10:00,
2013-04-03 22:11:00,33.8,15.4,30.24,WNW,287,6.7,6.7,46,0.00,,,0.00,VWS V14.01,2013-04-04 02:11:00,
2013-04-03 22:12:00,33.8,15.4,30.24,NW,319,0.0,7.8,46,0.00,,,0.00,VWS V14.01,2013-04-04 02:12:00,
2013-04-03 22:13:00,33.7,15.2,30.24,WNW,284,0.0,13.9,46,0.00,,,0.00,VWS V14.01,2013-04-04 02:13:00,
2013-04-03 22:14:00,33.7,15.4,30.24,West,276,9.6,16.0,46,0.00,,,0.00,VWS V14.01,2013-04-04 02:14:00,
2013-04-03 22:15:00,33.7,15.2,30.24,WNW,284,0.0,13.9,46,0.00,,,0.00,VWS V14.01,2013-04-04 02:15:00,
2013-04-03 22:16:00,33.6,15.0,30.23,NW,316,0.0,8.9,46,0.00,,,0.00,VWS V14.01,2013-04-04 02:16:00,
2013-04-03 22:17:00,33.7,15.2,30.23,NW,316,0.0,0.0,46,0.00,,,0.00,VWS V14.01,2013-04-04 02:17:00,
2013-04-03 22:18:00,33.7,15.3,30.24,West,264,0.0,8.8,46,0.00,,,0.00,VWS V14.01,2013-04-04 02:18:00,
2013-04-03 22:19:00,33.7,15.8,30.24,NW,316,8.5,9.5,47,0.00,,,0.00,VWS V14.01,2013-04-04 02:19:00,
2013-04-03 22:20:00,33.7,15.3,30.24,West,264,0.0,8.8,46,0.00,,,0.00,VWS V14.01,2013-04-04 02:20:00,
2013-04-03 22:21:00,33.7,15.6,30.23,NW,321,5.4,6.6,47,0.00,,,0.00,VWS V14.01,2013-04-04 02:21:00,
2013-04-03 22:22:00,33.7,15.5,30.24,NW,318,0.0,8.1,47,0.00,,,0.00,VWS V14.01,2013-04-04 02:22:00,
2013-04-03 22:23:00,33.6,15.1,30.24,North,359,6.1,11.7,46,0.00,,,0.00,VWS V14.01,2013-04-04 02:23:00,
2013-04-03 22:24:00,33.6,15.1,30.23,NNW,338,8.0,10.4,46,0.00,,,0.00,VWS V14.01,2013-04-04 02:24:00,
2013-04-03 22:25:00,33.6,15.1,30.24,North,359,6.1,11.7,46,0.00,,,0.00,VWS V14.01,2013-04-04 02:25:00,
2013-04-03 22:26:00,33.6,14.9,30.23,NNW,339,5.0,10.9,46,0.00,,,0.00,VWS V14.01,2013-04-04 02:26:00,
2013-04-03 22:27:00,33.6,15.2,30.24,NNW,339,0.0,5.0,46,0.00,,,0.00,VWS V14.01,2013-04-04 02:27:00,
2013-04-03 22:28:00,33.7,15.3,30.24,NNW,335,9.6,11.3,46,0.00,,,0.00,VWS V14.01,2013-04-04 02:28:00,
2013-04-03 22:29:00,33.6,15.2,30.24,West,262,0.0,13.3,46,0.00,,,0.00,VWS V14.01,2013-04-04 02:29:00,
2013-04-03 22:30:00,33.7,15.3,30.24,NNW,335,9.6,11.3,46,0.00,,,0.00,VWS V14.01,2013-04-04 02:30:00,
2013-04-03 22:31:00,33.6,15.1,30.23,NW,314,0.0,10.6,46,0.00,,,0.00,VWS V14.01,2013-04-04 02:31:00,
2013-04-03 22:32:00,33.6,15.2,30.24,NW,314,0.0,0.0,46,0.00,,,0.00,VWS V14.01,2013-04-04 02:32:00,
2013-04-03 22:33:00,33.6,15.3,30.23,WNW,294,8.5,9.4,47,0.00,,,0.00,VWS V14.01,2013-04-04 02:33:00,
2013-04-03 22:34:00,33.6,15.1,30.23,NW,314,0.0,0.0,46,0.00,,,0.00,VWS V14.01,2013-04-04 02:34:00,
2013-04-03 22:35:00,33.6,15.3,30.23,WNW,294,8.5,9.4,47,0.00,,,0.00,VWS V14.01,2013-04-04 02:35:00,
2013-04-03 22:36:00,33.5,15.1,30.23,NW,323,6.4,13.4,46,0.00,,,0.00,VWS V14.01,2013-04-04 02:36:00,
2013-04-03 22:37:00,33.4,15.1,30.23,WNW,297,3.4,7.9,46,0.00,,,0.00,VWS V14.01,2013-04-04 02:37:00,
2013-04-03 22:38:00,33.4,15.1,30.23,NW,307,6.6,11.0,46,0.00,,,0.00,VWS V14.01,2013-04-04 02:38:00,
2013-04-03 22:39:00,33.5,15.3,30.23,West,281,4.8,6.1,47,0.00,,,0.00,VWS V14.01,2013-04-04 02:39:00,
2013-04-03 22:40:00,33.4,15.1,30.23,NW,307,6.6,11.0,46,0.00,,,0.00,VWS V14.01,2013-04-04 02:40:00,
2013-04-03 22:41:00,33.5,15.2,30.23,NNW,339,0.0,10.4,46,0.00,,,0.00,VWS V14.01,2013-04-04 02:41:00,
2013-04-03 22:42:00,33.5,15.2,30.24,NNW,339,0.0,0.0,47,0.00,,,0.00,VWS V14.01,2013-04-04 02:42:00,
2013-04-03 22:43:00,33.4,15.1,30.24,West,264,0.0,0.0,46,0.00,,,0.00,VWS V14.01,2013-04-04 02:43:00,
2013-04-03 22:44:00,33.4,15.1,30.24,West,264,0.0,7.0,46,0.00,,,0.00,VWS V14.01,2013-04-04 02:44:00,
2013-04-03 22:45:00,33.4,15.1,30.24,West,264,0.0,0.0,46,0.00,,,0.00,VWS V14.01,2013-04-04 02:45:00,
2013-04-03 22:46:00,33.5,15.3,30.24,NW,311,5.5,6.0,47,0.00,,,0.00,VWS V14.01,2013-04-04 02:46:00,
2013-04-03 22:47:00,33.5,15.2,30.24,West,263,0.0,5.5,47,0.00,,,0.00,VWS V14.01,2013-04-04 02:47:00,
2013-04-03 22:48:00,33.4,15.2,30.24,West,259,8.1,15.1,47,0.00,,,0.00,VWS V14.01,2013-04-04 02:48:00,
2013-04-03 22:49:00,33.4,15.2,30.24,NW,307,0.0,6.8,47,0.00,,,0.00,VWS V14.01,2013-04-04 02:49:00,
2013-04-03 22:50:00,33.4,15.2,30.24,West,259,8.1,15.1,47,0.00,,,0.00,VWS V14.01,2013-04-04 02:50:00,
2013-04-03 22:51:00,33.5,15.3,30.24,WNW,294,0.0,8.1,47,0.00,,,0.00,VWS V14.01,2013-04-04 02:51:00,
2013-04-03 22:52:00,33.5,15.3,30.24,NW,312,2.4,6.8,47,0.00,,,0.00,VWS V14.01,2013-04-04 02:52:00,
2013-04-03 22:53:00,33.4,15.4,30.24,WNW,301,5.8,7.8,47,0.00,,,0.00,VWS V14.01,2013-04-04 02:53:00,
2013-04-03 22:54:00,33.3,15.2,30.24,West,266,7.2,9.8,47,0.00,,,0.00,VWS V14.01,2013-04-04 02:54:00,
2013-04-03 22:55:00,33.4,15.4,30.24,WNW,301,5.8,7.8,47,0.00,,,0.00,VWS V14.01,2013-04-04 02:55:00,
2013-04-03 22:56:00,33.3,15.3,30.24,WNW,294,0.0,9.7,47,0.00,,,0.00,VWS V14.01,2013-04-04 02:56:00,
2013-04-03 22:57:00,33.3,15.4,30.24,NW,321,5.2,7.9,47,0.00,,,0.00,VWS V14.01,2013-04-04 02:57:00,
2013-04-03 22:58:00,33.3,15.3,30.24,NW,312,0.0,0.0,47,0.00,,,0.00,VWS V14.01,2013-04-04 02:58:00,
2013-04-03 22:59:00,33.3,15.1,30.24,NW,312,0.0,0.0,47,0.00,,,0.00,VWS V14.01,2013-04-04 02:59:00,
2013-04-03 23:00:00,33.3,15.3,30.24,NW,312,0.0,0.0,47,0.00,,,0.00,VWS V14.01,2013-04-04 03:00:00,
2013-04-03 23:01:00,33.3,15.3,30.24,WNW,285,0.0,3.3,47,0.00,,,0.00,VWS V14.01,2013-04-04 03:01:00,
2013-04-03 23:02:00,33.1,15.1,30.24,NW,311,0.0,3.5,47,0.00,,,0.00,VWS V14.01,2013-04-04 03:02:00,
2013-04-03 23:03:00,33.2,15.4,30.24,NW,314,5.5,5.5,48,0.00,,,0.00,VWS V14.01,2013-04-04 03:03:00,
2013-04-03 23:04:00,33.1,15.1,30.24,NW,314,0.0,10.4,47,0.00,,,0.00,VWS V14.01,2013-04-04 03:04:00,
2013-04-03 23:05:00,33.2,15.4,30.24,NW,314,5.5,5.5,48,0.00,,,0.00,VWS V14.01,2013-04-04 03:05:00,
2013-04-03 23:06:00,33.1,15.1,30.24,WNW,301,4.2,9.4,47,0.00,,,0.00,VWS V14.01,2013-04-04 03:06:00,
2013-04-03 23:07:00,33.0,14.9,30.24,WNW,301,8.5,8.6,47,0.00,,,0.00,VWS V14.01,2013-04-04 03:07:00,
2013-04-03 23:08:00,33.1,15.0,30.24,WNW,284,0.0,13.7,47,0.00,,,0.00,VWS V14.01,2013-04-04 03:08:00,
2013-04-03 23:09:00,32.9,14.8,30.24,WNW,290,13.7,14.7,47,0.00,,,0.00,VWS V14.01,2013-04-04 03:09:00,
2013-04-03 23:10:00,33.1,15.0,30.24,WNW,284,0.0,13.7,47,0.00,,,0.00,VWS V14.01,2013-04-04 03:10:00,
2013-04-03 23:11:00,33.1,15.1,30.24,WNW,294,0.0,13.8,47,0.00,,,0.00,VWS V14.01,2013-04-04 03:11:00,
2013-04-03 23:12:00,33.2,15.2,30.24,WNW,294,0.0,6.9,47,0.00,,,0.00,VWS V14.01,2013-04-04 03:12:00,
2013-04-03 23:13:00,33.0,14.9,30.24,North,357,6.9,12.2,47,0.00,,,0.00,VWS V14.01,2013-04-04 03:13:00,
2013-04-03 23:14:00,33.0,15.1,30.24,NW,325,6.1,14.9,47,0.00,,,0.00,VWS V14.01,2013-04-04 03:14:00,
2013-04-03 23:15:00,33.0,14.9,30.24,North,357,6.9,12.2,47,0.00,,,0.00,VWS V14.01,2013-04-04 03:15:00,
2013-04-03 23:16:00,33.0,15.1,30.24,NW,315,2.5,8.7,47,0.00,,,0.00,VWS V14.01,2013-04-04 03:16:00,
2013-04-03 23:17:00,33.1,15.2,30.24,NW,323,1.9,7.3,47,0.00,,,0.00,VWS V14.01,2013-04-04 03:17:00,
2013-04-03 23:18:00,33.0,14.7,30.24,NW,307,5.3,14.9,46,0.00,,,0.00,VWS V14.01,2013-04-04 03:18:00,
2013-04-03 23:19:00,33.1,15.1,30.24,NW,307,4.5,11.0,47,0.00,,,0.00,VWS V14.01,2013-04-04 03:19:00,
2013-04-03 23:20:00,33.0,14.7,30.24,NW,307,5.3,14.9,46,0.00,,,0.00,VWS V14.01,2013-04-04 03:20:00,
2013-04-03 23:21:00,33.0,14.7,30.24,WNW,298,9.9,11.2,46,0.00,,,0.00,VWS V14.01,2013-04-04 03:21:00,
2013-04-03 23:22:00,33.2,14.9,30.24,NNW,340,0.0,12.4,46,0.00,,,0.00,VWS V14.01,2013-04-04 03:22:00,
2013-04-03 23:23:00,33.2,15.3,30.25,NNW,339,0.0,9.1,47,0.00,,,0.00,VWS V14.01,2013-04-04 03:23:00,
2013-04-03 23:24:00,33.1,14.9,30.25,North,359,0.0,8.6,47,0.00,,,0.00,VWS V14.01,2013-04-04 03:24:00,
2013-04-03 23:25:00,33.2,15.3,30.25,NNW,339,0.0,9.1,47,0.00,,,0.00,VWS V14.01,2013-04-04 03:25:00,
2013-04-03 23:26:00,33.2,15.4,30.25,NW,307,7.9,7.9,47,0.00,,,0.00,VWS V14.01,2013-04-04 03:26:00,
2013-04-03 23:27:00,33.2,15.0,30.25,WNW,300,4.2,10.7,47,0.00,,,0.00,VWS V14.01,2013-04-04 03:27:00,
2013-04-03 23:28:00,33.1,15.1,30.25,WNW,283,0.0,11.9,47,0.00,,,0.00,VWS V14.01,2013-04-04 03:28:00,
2013-04-03 23:29:00,33.2,15.1,30.25,WNW,298,0.0,0.0,47,0.00,,,0.00,VWS V14.01,2013-04-04 03:29:00,
2013-04-03 23:30:00,33.1,15.1,30.25,WNW,283,0.0,11.9,47,0.00,,,0.00,VWS V14.01,2013-04-04 03:30:00,
2013-04-03 23:31:00,33.2,15.2,30.25,WNW,283,0.0,0.0,47,0.00,,,0.00,VWS V14.01,2013-04-04 03:31:00,
2013-04-03 23:32:00,33.1,15.0,30.25,WSW,239,3.5,13.8,47,0.00,,,0.00,VWS V14.01,2013-04-04 03:32:00,
2013-04-03 23:33:00,33.1,15.2,30.26,West,277,11.5,11.5,47,0.00,,,0.00,VWS V14.01,2013-04-04 03:33:00,
2013-04-03 23:34:00,33.1,15.0,30.25,WNW,290,5.4,7.9,47,0.00,,,0.00,VWS V14.01,2013-04-04 03:34:00,
2013-04-03 23:35:00,33.1,15.2,30.25,West,277,11.5,11.5,47,0.00,,,0.00,VWS V14.01,2013-04-04 03:35:00,
2013-04-03 23:36:00,33.0,14.9,30.25,WNW,287,5.4,13.7,47,0.00,,,0.00,VWS V14.01,2013-04-04 03:36:00,
2013-04-03 23:37:00,33.1,15.1,30.26,West,277,0.0,5.4,47,0.00,,,0.00,VWS V14.01,2013-04-04 03:37:00,
2013-04-03 23:38:00,33.1,15.1,30.26,WNW,287,5.6,10.6,47,0.00,,,0.00,VWS V14.01,2013-04-04 03:38:00,
2013-04-03 23:39:00,33.0,15.0,30.26,WNW,288,4.8,10.3,47,0.00,,,0.00,VWS V14.01,2013-04-04 03:39:00,
2013-04-03 23:40:00,33.1,15.1,30.25,WNW,287,5.6,10.6,47,0.00,,,0.00,VWS V14.01,2013-04-04 03:40:00,
2013-04-03 23:41:00,33.1,15.3,30.26,NW,314,0.0,8.0,48,0.00,,,0.00,VWS V14.01,2013-04-04 03:41:00,
2013-04-03 23:42:00,33.0,15.5,30.26,NW,314,0.0,0.0,48,0.00,,,0.00,VWS V14.01,2013-04-04 03:42:00,
2013-04-03 23:43:00,33.1,15.3,30.26,NW,314,0.0,0.0,48,0.00,,,0.00,VWS V14.01,2013-04-04 03:43:00,
2013-04-03 23:44:00,33.1,15.3,30.26,WNW,290,5.1,6.4,47,0.00,,,0.00,VWS V14.01,2013-04-04 03:44:00,
2013-04-03 23:45:00,33.0,15.1,30.26,NW,311,6.4,13.6,47,0.00,,,0.00,VWS V14.01,2013-04-04 03:45:00,
2013-04-03 23:46:00,33.0,15.0,30.26,West,269,3.4,8.1,47,0.00,,,0.00,VWS V14.01,2013-04-04 03:46:00,
2013-04-03 23:47:00,33.1,15.2,30.26,West,269,0.0,4.7,47,0.00,,,0.00,VWS V14.01,2013-04-04 03:47:00,
2013-04-03 23:48:00,33.0,15.0,30.26,West,269,0.0,4.8,47,0.00,,,0.00,VWS V14.01,2013-04-04 03:48:00,
2013-04-03 23:49:00,33.0,15.1,30.26,NW,319,0.0,4.8,47,0.00,,,0.00,VWS V14.01,2013-04-04 03:49:00,
2013-04-03 23:50:00,33.0,15.1,30.26,West,276,0.0,8.6,47,0.00,,,0.00,VWS V14.01,2013-04-04 03:50:00,
2013-04-03 23:51:00,33.0,15.1,30.26,NW,319,0.0,4.8,47,0.00,,,0.00,VWS V14.01,2013-04-04 03:51:00,
2013-04-03 23:52:00,33.1,15.3,30.26,NW,304,0.0,8.7,47,0.00,,,0.00,VWS V14.01,2013-04-04 03:52:00,
2013-04-03 23:53:00,33.0,15.0,30.26,NW,304,0.0,0.0,47,0.00,,,0.00,VWS V14.01,2013-04-04 03:53:00,
2013-04-03 23:54:00,33.0,15.3,30.26,WNW,298,0.0,0.0,48,0.00,,,0.00,VWS V14.01,2013-04-04 03:54:00,
2013-04-03 23:55:00,33.0,15.3,30.26,WNW,298,0.0,3.4,48,0.00,,,0.00,VWS V14.01,2013-04-04 03:55:00,
2013-04-03 23:56:00,33.0,15.3,30.26,WNW,298,0.0,0.0,48,0.00,,,0.00,VWS V14.01,2013-04-04 03:56:00,
2013-04-03 23:57:00,32.8,14.9,30.26,NW,314,3.4,9.6,47,0.00,,,0.00,VWS V14.01,2013-04-04 03:57:00,
2013-04-03 23:58:00,32.9,15.0,30.26,NNW,339,0.0,7.5,47,0.00,,,0.00,VWS V14.01,2013-04-04 03:58:00,
2013-04-03 23:59:00,33.0,15.4,30.26,WSW,243,0.0,0.0,48,0.00,,,0.00,VWS V14.01,2013-04-04 03:59:00,